<?xml version="1.0" encoding="UTF-8" standalone="no" ?>
<gpx xmlns="http://www.topografix.com/GPX/1/1" xmlns:xsi="http://www.w3.org/2001/XMLSchema-instance" xsi:schemaLocation="http://www.topografix.com/GPX/1/1 http://www.topografix.com/GPX/1/1/gpx.xsd" version="1.1" creator="VisuGPX - https://www.visugpx.com">
  <metadata>
    <name>Cransac</name>
    <desc><![CDATA[grp_trc:]]></desc>
  </metadata>
  <trk>
    <name><![CDATA[Cransac 💛💛💛]]></name>
    <cmt><![CDATA[3:27:44 PM]]></cmt>
    <desc><![CDATA[comment ...]]></desc>
    <trkseg>
      <trkpt lat="44.52675" lon="2.29322">
        <ele>405</ele>
        <time>2020-06-15T13:27:45Z</time>
      </trkpt>
      <trkpt lat="44.52675" lon="2.29322">
        <ele>405</ele>
        <time>2020-06-15T13:27:46Z</time>
      </trkpt>
      <trkpt lat="44.52673" lon="2.29316">
        <ele>406</ele>
        <time>2020-06-15T13:31:04Z</time>
      </trkpt>
      <trkpt lat="44.52672" lon="2.29301">
        <ele>410</ele>
        <time>2020-06-15T13:31:09Z</time>
      </trkpt>
      <trkpt lat="44.52681" lon="2.29232">
        <ele>413</ele>
        <time>2020-06-15T13:31:28Z</time>
      </trkpt>
      <trkpt lat="44.52683" lon="2.29197">
        <ele>436</ele>
        <time>2020-06-15T13:31:36Z</time>
      </trkpt>
      <trkpt lat="44.52688" lon="2.2913">
        <ele>413</ele>
        <time>2020-06-15T13:31:52Z</time>
      </trkpt>
      <trkpt lat="44.52688" lon="2.29114">
        <ele>436</ele>
        <time>2020-06-15T13:31:56Z</time>
      </trkpt>
      <trkpt lat="44.52691" lon="2.29099">
        <ele>426</ele>
        <time>2020-06-15T13:32:00Z</time>
      </trkpt>
      <trkpt lat="44.52694" lon="2.29062">
        <ele>418</ele>
        <time>2020-06-15T13:32:10Z</time>
      </trkpt>
      <trkpt lat="44.52697" lon="2.29038">
        <ele>417</ele>
        <time>2020-06-15T13:32:16Z</time>
      </trkpt>
      <trkpt lat="44.527" lon="2.29029">
        <ele>414</ele>
        <time>2020-06-15T13:32:19Z</time>
      </trkpt>
      <trkpt lat="44.52702" lon="2.29007">
        <ele>414</ele>
        <time>2020-06-15T13:32:25Z</time>
      </trkpt>
      <trkpt lat="44.52701" lon="2.29001">
        <ele>413</ele>
        <time>2020-06-15T13:32:32Z</time>
      </trkpt>
      <trkpt lat="44.52698" lon="2.28998">
        <ele>413</ele>
        <time>2020-06-15T13:32:42Z</time>
      </trkpt>
      <trkpt lat="44.52699" lon="2.2899">
        <ele>419</ele>
        <time>2020-06-15T13:33:13Z</time>
      </trkpt>
      <trkpt lat="44.527" lon="2.28984">
        <ele>418</ele>
        <time>2020-06-15T13:33:15Z</time>
      </trkpt>
      <trkpt lat="44.527" lon="2.28974">
        <ele>418</ele>
        <time>2020-06-15T13:33:18Z</time>
      </trkpt>
      <trkpt lat="44.52696" lon="2.2896">
        <ele>418</ele>
        <time>2020-06-15T13:33:23Z</time>
      </trkpt>
      <trkpt lat="44.52689" lon="2.28909">
        <ele>411</ele>
        <time>2020-06-15T13:33:38Z</time>
      </trkpt>
      <trkpt lat="44.52687" lon="2.2889">
        <ele>410</ele>
        <time>2020-06-15T13:33:44Z</time>
      </trkpt>
      <trkpt lat="44.52686" lon="2.28879">
        <ele>409</ele>
        <time>2020-06-15T13:33:47Z</time>
      </trkpt>
      <trkpt lat="44.52692" lon="2.28857">
        <ele>407</ele>
        <time>2020-06-15T13:33:53Z</time>
      </trkpt>
      <trkpt lat="44.52696" lon="2.28849">
        <ele>407</ele>
        <time>2020-06-15T13:33:56Z</time>
      </trkpt>
      <trkpt lat="44.52714" lon="2.2883">
        <ele>410</ele>
        <time>2020-06-15T13:34:05Z</time>
      </trkpt>
      <trkpt lat="44.52734" lon="2.28799">
        <ele>412</ele>
        <time>2020-06-15T13:34:16Z</time>
      </trkpt>
      <trkpt lat="44.52764" lon="2.28752">
        <ele>421</ele>
        <time>2020-06-15T13:34:32Z</time>
      </trkpt>
      <trkpt lat="44.52782" lon="2.28739">
        <ele>420</ele>
        <time>2020-06-15T13:34:40Z</time>
      </trkpt>
      <trkpt lat="44.52794" lon="2.28734">
        <ele>419</ele>
        <time>2020-06-15T13:34:44Z</time>
      </trkpt>
      <trkpt lat="44.52877" lon="2.28722">
        <ele>421</ele>
        <time>2020-06-15T13:35:15Z</time>
      </trkpt>
      <trkpt lat="44.52914" lon="2.28719">
        <ele>421</ele>
        <time>2020-06-15T13:35:27Z</time>
      </trkpt>
      <trkpt lat="44.52926" lon="2.28722">
        <ele>421</ele>
        <time>2020-06-15T13:35:31Z</time>
      </trkpt>
      <trkpt lat="44.52932" lon="2.28728">
        <ele>421</ele>
        <time>2020-06-15T13:35:34Z</time>
      </trkpt>
      <trkpt lat="44.52963" lon="2.28783">
        <ele>418</ele>
        <time>2020-06-15T13:35:51Z</time>
      </trkpt>
      <trkpt lat="44.52983" lon="2.28803">
        <ele>421</ele>
        <time>2020-06-15T13:36:00Z</time>
      </trkpt>
      <trkpt lat="44.52996" lon="2.28813">
        <ele>423</ele>
        <time>2020-06-15T13:36:06Z</time>
      </trkpt>
      <trkpt lat="44.53012" lon="2.28816">
        <ele>421</ele>
        <time>2020-06-15T13:36:12Z</time>
      </trkpt>
      <trkpt lat="44.53043" lon="2.28859">
        <ele>422</ele>
        <time>2020-06-15T13:36:27Z</time>
      </trkpt>
      <trkpt lat="44.53051" lon="2.28872">
        <ele>422</ele>
        <time>2020-06-15T13:36:31Z</time>
      </trkpt>
      <trkpt lat="44.53088" lon="2.28936">
        <ele>424</ele>
        <time>2020-06-15T13:36:51Z</time>
      </trkpt>
      <trkpt lat="44.53093" lon="2.2894">
        <ele>424</ele>
        <time>2020-06-15T13:36:53Z</time>
      </trkpt>
      <trkpt lat="44.53098" lon="2.28942">
        <ele>424</ele>
        <time>2020-06-15T13:36:55Z</time>
      </trkpt>
      <trkpt lat="44.53109" lon="2.28938">
        <ele>425</ele>
        <time>2020-06-15T13:36:59Z</time>
      </trkpt>
      <trkpt lat="44.53117" lon="2.28929">
        <ele>426</ele>
        <time>2020-06-15T13:37:03Z</time>
      </trkpt>
      <trkpt lat="44.53161" lon="2.28865">
        <ele>426</ele>
        <time>2020-06-15T13:37:29Z</time>
      </trkpt>
      <trkpt lat="44.5317" lon="2.28847">
        <ele>429</ele>
        <time>2020-06-15T13:37:35Z</time>
      </trkpt>
      <trkpt lat="44.53192" lon="2.28816">
        <ele>438</ele>
        <time>2020-06-15T13:37:47Z</time>
      </trkpt>
      <trkpt lat="44.53207" lon="2.28783">
        <ele>439</ele>
        <time>2020-06-15T13:37:57Z</time>
      </trkpt>
      <trkpt lat="44.53224" lon="2.28756">
        <ele>439</ele>
        <time>2020-06-15T13:38:07Z</time>
      </trkpt>
      <trkpt lat="44.53237" lon="2.2871">
        <ele>440</ele>
        <time>2020-06-15T13:38:20Z</time>
      </trkpt>
      <trkpt lat="44.5326" lon="2.28609">
        <ele>444</ele>
        <time>2020-06-15T13:38:48Z</time>
      </trkpt>
      <trkpt lat="44.5326" lon="2.28599">
        <ele>444</ele>
        <time>2020-06-15T13:38:50Z</time>
      </trkpt>
      <trkpt lat="44.53258" lon="2.28591">
        <ele>444</ele>
        <time>2020-06-15T13:38:52Z</time>
      </trkpt>
      <trkpt lat="44.53253" lon="2.28584">
        <ele>444</ele>
        <time>2020-06-15T13:38:54Z</time>
      </trkpt>
      <trkpt lat="44.53224" lon="2.28574">
        <ele>442</ele>
        <time>2020-06-15T13:39:04Z</time>
      </trkpt>
      <trkpt lat="44.53217" lon="2.28568">
        <ele>441</ele>
        <time>2020-06-15T13:39:07Z</time>
      </trkpt>
      <trkpt lat="44.53212" lon="2.28561">
        <ele>441</ele>
        <time>2020-06-15T13:39:10Z</time>
      </trkpt>
      <trkpt lat="44.53197" lon="2.28553">
        <ele>441</ele>
        <time>2020-06-15T13:39:17Z</time>
      </trkpt>
      <trkpt lat="44.53191" lon="2.28553">
        <ele>443</ele>
        <time>2020-06-15T13:39:20Z</time>
      </trkpt>
      <trkpt lat="44.53186" lon="2.28559">
        <ele>445</ele>
        <time>2020-06-15T13:39:23Z</time>
      </trkpt>
      <trkpt lat="44.53164" lon="2.28586">
        <ele>455</ele>
        <time>2020-06-15T13:39:35Z</time>
      </trkpt>
      <trkpt lat="44.53148" lon="2.28598">
        <ele>457</ele>
        <time>2020-06-15T13:39:43Z</time>
      </trkpt>
      <trkpt lat="44.53141" lon="2.28599">
        <ele>457</ele>
        <time>2020-06-15T13:39:46Z</time>
      </trkpt>
      <trkpt lat="44.53134" lon="2.28597">
        <ele>456</ele>
        <time>2020-06-15T13:39:49Z</time>
      </trkpt>
      <trkpt lat="44.53131" lon="2.28589">
        <ele>456</ele>
        <time>2020-06-15T13:39:52Z</time>
      </trkpt>
      <trkpt lat="44.53135" lon="2.28579">
        <ele>457</ele>
        <time>2020-06-15T13:39:56Z</time>
      </trkpt>
      <trkpt lat="44.53142" lon="2.2857">
        <ele>457</ele>
        <time>2020-06-15T13:40:00Z</time>
      </trkpt>
      <trkpt lat="44.53145" lon="2.28557">
        <ele>455</ele>
        <time>2020-06-15T13:40:04Z</time>
      </trkpt>
      <trkpt lat="44.53158" lon="2.28534">
        <ele>457</ele>
        <time>2020-06-15T13:40:13Z</time>
      </trkpt>
      <trkpt lat="44.53162" lon="2.28516">
        <ele>462</ele>
        <time>2020-06-15T13:40:18Z</time>
      </trkpt>
      <trkpt lat="44.53173" lon="2.28493">
        <ele>464</ele>
        <time>2020-06-15T13:40:27Z</time>
      </trkpt>
      <trkpt lat="44.53178" lon="2.28487">
        <ele>452</ele>
        <time>2020-06-15T13:40:30Z</time>
      </trkpt>
      <trkpt lat="44.53183" lon="2.28479">
        <ele>452</ele>
        <time>2020-06-15T13:40:33Z</time>
      </trkpt>
      <trkpt lat="44.53225" lon="2.28404">
        <ele>471</ele>
        <time>2020-06-15T13:40:57Z</time>
      </trkpt>
      <trkpt lat="44.53227" lon="2.28397">
        <ele>471</ele>
        <time>2020-06-15T13:40:59Z</time>
      </trkpt>
      <trkpt lat="44.53228" lon="2.2839">
        <ele>473</ele>
        <time>2020-06-15T13:41:01Z</time>
      </trkpt>
      <trkpt lat="44.53227" lon="2.28382">
        <ele>473</ele>
        <time>2020-06-15T13:41:03Z</time>
      </trkpt>
      <trkpt lat="44.53221" lon="2.28377">
        <ele>473</ele>
        <time>2020-06-15T13:41:05Z</time>
      </trkpt>
      <trkpt lat="44.53213" lon="2.28378">
        <ele>470</ele>
        <time>2020-06-15T13:41:07Z</time>
      </trkpt>
      <trkpt lat="44.53206" lon="2.28385">
        <ele>469</ele>
        <time>2020-06-15T13:41:08Z</time>
      </trkpt>
      <trkpt lat="44.53201" lon="2.28386">
        <ele>468</ele>
        <time>2020-06-15T13:41:09Z</time>
      </trkpt>
      <trkpt lat="44.53181" lon="2.28382">
        <ele>465</ele>
        <time>2020-06-15T13:41:13Z</time>
      </trkpt>
      <trkpt lat="44.53176" lon="2.2838">
        <ele>464</ele>
        <time>2020-06-15T13:41:14Z</time>
      </trkpt>
      <trkpt lat="44.53167" lon="2.28373">
        <ele>462</ele>
        <time>2020-06-15T13:41:16Z</time>
      </trkpt>
      <trkpt lat="44.53127" lon="2.28353">
        <ele>459</ele>
        <time>2020-06-15T13:41:26Z</time>
      </trkpt>
      <trkpt lat="44.53119" lon="2.28345">
        <ele>458</ele>
        <time>2020-06-15T13:41:28Z</time>
      </trkpt>
      <trkpt lat="44.53091" lon="2.28296">
        <ele>456</ele>
        <time>2020-06-15T13:41:41Z</time>
      </trkpt>
      <trkpt lat="44.53071" lon="2.28255">
        <ele>459</ele>
        <time>2020-06-15T13:41:49Z</time>
      </trkpt>
      <trkpt lat="44.53071" lon="2.28237">
        <ele>461</ele>
        <time>2020-06-15T13:41:51Z</time>
      </trkpt>
      <trkpt lat="44.53073" lon="2.2823">
        <ele>461</ele>
        <time>2020-06-15T13:41:52Z</time>
      </trkpt>
      <trkpt lat="44.53073" lon="2.2822">
        <ele>461</ele>
        <time>2020-06-15T13:41:54Z</time>
      </trkpt>
      <trkpt lat="44.53076" lon="2.2821">
        <ele>461</ele>
        <time>2020-06-15T13:41:56Z</time>
      </trkpt>
      <trkpt lat="44.53078" lon="2.28203">
        <ele>461</ele>
        <time>2020-06-15T13:41:58Z</time>
      </trkpt>
      <trkpt lat="44.5308" lon="2.28196">
        <ele>462</ele>
        <time>2020-06-15T13:42:00Z</time>
      </trkpt>
      <trkpt lat="44.53086" lon="2.2819">
        <ele>462</ele>
        <time>2020-06-15T13:42:02Z</time>
      </trkpt>
      <trkpt lat="44.5309" lon="2.28186">
        <ele>463</ele>
        <time>2020-06-15T13:42:04Z</time>
      </trkpt>
      <trkpt lat="44.53093" lon="2.28179">
        <ele>462</ele>
        <time>2020-06-15T13:42:06Z</time>
      </trkpt>
      <trkpt lat="44.53092" lon="2.28156">
        <ele>463</ele>
        <time>2020-06-15T13:42:10Z</time>
      </trkpt>
      <trkpt lat="44.53108" lon="2.28137">
        <ele>464</ele>
        <time>2020-06-15T13:42:14Z</time>
      </trkpt>
      <trkpt lat="44.53117" lon="2.28131">
        <ele>464</ele>
        <time>2020-06-15T13:42:16Z</time>
      </trkpt>
      <trkpt lat="44.53125" lon="2.28117">
        <ele>462</ele>
        <time>2020-06-15T13:42:18Z</time>
      </trkpt>
      <trkpt lat="44.53128" lon="2.28108">
        <ele>461</ele>
        <time>2020-06-15T13:42:19Z</time>
      </trkpt>
      <trkpt lat="44.53131" lon="2.28101">
        <ele>460</ele>
        <time>2020-06-15T13:42:20Z</time>
      </trkpt>
      <trkpt lat="44.53139" lon="2.28095">
        <ele>459</ele>
        <time>2020-06-15T13:42:21Z</time>
      </trkpt>
      <trkpt lat="44.53153" lon="2.28073">
        <ele>457</ele>
        <time>2020-06-15T13:42:24Z</time>
      </trkpt>
      <trkpt lat="44.53159" lon="2.28056">
        <ele>454</ele>
        <time>2020-06-15T13:42:26Z</time>
      </trkpt>
      <trkpt lat="44.5316" lon="2.2804">
        <ele>453</ele>
        <time>2020-06-15T13:42:28Z</time>
      </trkpt>
      <trkpt lat="44.53163" lon="2.28033">
        <ele>452</ele>
        <time>2020-06-15T13:42:30Z</time>
      </trkpt>
      <trkpt lat="44.53168" lon="2.2804">
        <ele>452</ele>
        <time>2020-06-15T13:42:34Z</time>
      </trkpt>
      <trkpt lat="44.53172" lon="2.28059">
        <ele>451</ele>
        <time>2020-06-15T13:42:38Z</time>
      </trkpt>
      <trkpt lat="44.53172" lon="2.28093">
        <ele>448</ele>
        <time>2020-06-15T13:42:44Z</time>
      </trkpt>
      <trkpt lat="44.53183" lon="2.2809">
        <ele>448</ele>
        <time>2020-06-15T13:42:49Z</time>
      </trkpt>
      <trkpt lat="44.53185" lon="2.28074">
        <ele>448</ele>
        <time>2020-06-15T13:42:51Z</time>
      </trkpt>
      <trkpt lat="44.5319" lon="2.28043">
        <ele>444</ele>
        <time>2020-06-15T13:42:55Z</time>
      </trkpt>
      <trkpt lat="44.53195" lon="2.28033">
        <ele>442</ele>
        <time>2020-06-15T13:42:57Z</time>
      </trkpt>
      <trkpt lat="44.532" lon="2.28029">
        <ele>440</ele>
        <time>2020-06-15T13:43:00Z</time>
      </trkpt>
      <trkpt lat="44.53207" lon="2.28036">
        <ele>436</ele>
        <time>2020-06-15T13:43:03Z</time>
      </trkpt>
      <trkpt lat="44.53208" lon="2.28052">
        <ele>429</ele>
        <time>2020-06-15T13:43:07Z</time>
      </trkpt>
      <trkpt lat="44.53211" lon="2.28064">
        <ele>443</ele>
        <time>2020-06-15T13:43:10Z</time>
      </trkpt>
      <trkpt lat="44.53212" lon="2.28078">
        <ele>441</ele>
        <time>2020-06-15T13:43:13Z</time>
      </trkpt>
      <trkpt lat="44.53219" lon="2.28071">
        <ele>435</ele>
        <time>2020-06-15T13:43:18Z</time>
      </trkpt>
      <trkpt lat="44.5322" lon="2.28054">
        <ele>431</ele>
        <time>2020-06-15T13:43:20Z</time>
      </trkpt>
      <trkpt lat="44.53225" lon="2.28038">
        <ele>428</ele>
        <time>2020-06-15T13:43:22Z</time>
      </trkpt>
      <trkpt lat="44.53228" lon="2.28028">
        <ele>425</ele>
        <time>2020-06-15T13:43:23Z</time>
      </trkpt>
      <trkpt lat="44.53232" lon="2.28009">
        <ele>423</ele>
        <time>2020-06-15T13:43:25Z</time>
      </trkpt>
      <trkpt lat="44.53236" lon="2.27997">
        <ele>420</ele>
        <time>2020-06-15T13:43:26Z</time>
      </trkpt>
      <trkpt lat="44.53247" lon="2.27976">
        <ele>418</ele>
        <time>2020-06-15T13:43:28Z</time>
      </trkpt>
      <trkpt lat="44.53252" lon="2.27955">
        <ele>414</ele>
        <time>2020-06-15T13:43:30Z</time>
      </trkpt>
      <trkpt lat="44.53259" lon="2.27928">
        <ele>409</ele>
        <time>2020-06-15T13:43:32Z</time>
      </trkpt>
      <trkpt lat="44.53264" lon="2.27918">
        <ele>407</ele>
        <time>2020-06-15T13:43:33Z</time>
      </trkpt>
      <trkpt lat="44.53265" lon="2.27882">
        <ele>403</ele>
        <time>2020-06-15T13:43:36Z</time>
      </trkpt>
      <trkpt lat="44.53261" lon="2.27859">
        <ele>399</ele>
        <time>2020-06-15T13:43:38Z</time>
      </trkpt>
      <trkpt lat="44.53261" lon="2.27839">
        <ele>399</ele>
        <time>2020-06-15T13:43:40Z</time>
      </trkpt>
      <trkpt lat="44.53259" lon="2.2783">
        <ele>398</ele>
        <time>2020-06-15T13:43:41Z</time>
      </trkpt>
      <trkpt lat="44.53258" lon="2.27811">
        <ele>396</ele>
        <time>2020-06-15T13:43:43Z</time>
      </trkpt>
      <trkpt lat="44.53255" lon="2.2779">
        <ele>394</ele>
        <time>2020-06-15T13:43:45Z</time>
      </trkpt>
      <trkpt lat="44.53251" lon="2.27769">
        <ele>417</ele>
        <time>2020-06-15T13:43:47Z</time>
      </trkpt>
      <trkpt lat="44.53249" lon="2.2776">
        <ele>416</ele>
        <time>2020-06-15T13:43:48Z</time>
      </trkpt>
      <trkpt lat="44.5325" lon="2.27741">
        <ele>411</ele>
        <time>2020-06-15T13:43:50Z</time>
      </trkpt>
      <trkpt lat="44.53253" lon="2.27728">
        <ele>406</ele>
        <time>2020-06-15T13:43:52Z</time>
      </trkpt>
      <trkpt lat="44.53249" lon="2.27706">
        <ele>396</ele>
        <time>2020-06-15T13:43:56Z</time>
      </trkpt>
      <trkpt lat="44.53246" lon="2.27694">
        <ele>395</ele>
        <time>2020-06-15T13:43:58Z</time>
      </trkpt>
      <trkpt lat="44.53205" lon="2.27651">
        <ele>383</ele>
        <time>2020-06-15T13:44:09Z</time>
      </trkpt>
      <trkpt lat="44.53206" lon="2.27643">
        <ele>380</ele>
        <time>2020-06-15T13:44:13Z</time>
      </trkpt>
      <trkpt lat="44.53211" lon="2.27633">
        <ele>377</ele>
        <time>2020-06-15T13:44:16Z</time>
      </trkpt>
      <trkpt lat="44.53216" lon="2.27629">
        <ele>376</ele>
        <time>2020-06-15T13:44:19Z</time>
      </trkpt>
      <trkpt lat="44.53223" lon="2.27625">
        <ele>373</ele>
        <time>2020-06-15T13:44:22Z</time>
      </trkpt>
      <trkpt lat="44.53288" lon="2.27577">
        <ele>369</ele>
        <time>2020-06-15T13:44:33Z</time>
      </trkpt>
      <trkpt lat="44.53296" lon="2.27569">
        <ele>369</ele>
        <time>2020-06-15T13:44:36Z</time>
      </trkpt>
      <trkpt lat="44.53295" lon="2.27553">
        <ele>368</ele>
        <time>2020-06-15T13:44:40Z</time>
      </trkpt>
      <trkpt lat="44.53294" lon="2.27538">
        <ele>367</ele>
        <time>2020-06-15T13:44:44Z</time>
      </trkpt>
      <trkpt lat="44.53303" lon="2.27521">
        <ele>396</ele>
        <time>2020-06-15T13:44:48Z</time>
      </trkpt>
      <trkpt lat="44.53308" lon="2.27505">
        <ele>378</ele>
        <time>2020-06-15T13:44:52Z</time>
      </trkpt>
      <trkpt lat="44.53328" lon="2.2747">
        <ele>363</ele>
        <time>2020-06-15T13:45:05Z</time>
      </trkpt>
      <trkpt lat="44.53334" lon="2.27467">
        <ele>364</ele>
        <time>2020-06-15T13:45:08Z</time>
      </trkpt>
      <trkpt lat="44.53341" lon="2.27468">
        <ele>367</ele>
        <time>2020-06-15T13:45:11Z</time>
      </trkpt>
      <trkpt lat="44.53354" lon="2.27472">
        <ele>370</ele>
        <time>2020-06-15T13:45:17Z</time>
      </trkpt>
      <trkpt lat="44.53371" lon="2.27474">
        <ele>372</ele>
        <time>2020-06-15T13:45:23Z</time>
      </trkpt>
      <trkpt lat="44.53378" lon="2.27478">
        <ele>372</ele>
        <time>2020-06-15T13:45:25Z</time>
      </trkpt>
      <trkpt lat="44.53386" lon="2.27489">
        <ele>371</ele>
        <time>2020-06-15T13:45:28Z</time>
      </trkpt>
      <trkpt lat="44.53397" lon="2.27514">
        <ele>369</ele>
        <time>2020-06-15T13:45:32Z</time>
      </trkpt>
      <trkpt lat="44.53402" lon="2.27523">
        <ele>370</ele>
        <time>2020-06-15T13:45:34Z</time>
      </trkpt>
      <trkpt lat="44.53427" lon="2.2754">
        <ele>373</ele>
        <time>2020-06-15T13:45:42Z</time>
      </trkpt>
      <trkpt lat="44.53439" lon="2.27556">
        <ele>372</ele>
        <time>2020-06-15T13:45:46Z</time>
      </trkpt>
      <trkpt lat="44.53448" lon="2.2758">
        <ele>371</ele>
        <time>2020-06-15T13:45:50Z</time>
      </trkpt>
      <trkpt lat="44.53459" lon="2.27607">
        <ele>366</ele>
        <time>2020-06-15T13:45:54Z</time>
      </trkpt>
      <trkpt lat="44.53461" lon="2.27633">
        <ele>368</ele>
        <time>2020-06-15T13:45:58Z</time>
      </trkpt>
      <trkpt lat="44.53465" lon="2.27653">
        <ele>367</ele>
        <time>2020-06-15T13:46:03Z</time>
      </trkpt>
      <trkpt lat="44.53466" lon="2.27661">
        <ele>367</ele>
        <time>2020-06-15T13:46:05Z</time>
      </trkpt>
      <trkpt lat="44.53463" lon="2.2767">
        <ele>370</ele>
        <time>2020-06-15T13:46:09Z</time>
      </trkpt>
      <trkpt lat="44.53457" lon="2.27676">
        <ele>371</ele>
        <time>2020-06-15T13:46:12Z</time>
      </trkpt>
      <trkpt lat="44.53446" lon="2.27687">
        <ele>373</ele>
        <time>2020-06-15T13:46:17Z</time>
      </trkpt>
      <trkpt lat="44.53442" lon="2.27694">
        <ele>371</ele>
        <time>2020-06-15T13:46:19Z</time>
      </trkpt>
      <trkpt lat="44.53439" lon="2.27702">
        <ele>371</ele>
        <time>2020-06-15T13:46:21Z</time>
      </trkpt>
      <trkpt lat="44.53438" lon="2.27719">
        <ele>374</ele>
        <time>2020-06-15T13:46:25Z</time>
      </trkpt>
      <trkpt lat="44.53439" lon="2.27729">
        <ele>375</ele>
        <time>2020-06-15T13:46:28Z</time>
      </trkpt>
      <trkpt lat="44.53439" lon="2.27738">
        <ele>375</ele>
        <time>2020-06-15T13:46:30Z</time>
      </trkpt>
      <trkpt lat="44.53432" lon="2.27753">
        <ele>374</ele>
        <time>2020-06-15T13:46:35Z</time>
      </trkpt>
      <trkpt lat="44.53429" lon="2.2776">
        <ele>375</ele>
        <time>2020-06-15T13:46:38Z</time>
      </trkpt>
      <trkpt lat="44.5343" lon="2.27769">
        <ele>378</ele>
        <time>2020-06-15T13:46:41Z</time>
      </trkpt>
      <trkpt lat="44.53481" lon="2.27859">
        <ele>388</ele>
        <time>2020-06-15T13:47:12Z</time>
      </trkpt>
      <trkpt lat="44.53514" lon="2.27905">
        <ele>393</ele>
        <time>2020-06-15T13:47:30Z</time>
      </trkpt>
      <trkpt lat="44.53526" lon="2.27936">
        <ele>398</ele>
        <time>2020-06-15T13:47:40Z</time>
      </trkpt>
      <trkpt lat="44.5353" lon="2.27941">
        <ele>398</ele>
        <time>2020-06-15T13:47:42Z</time>
      </trkpt>
      <trkpt lat="44.53548" lon="2.27944">
        <ele>398</ele>
        <time>2020-06-15T13:47:48Z</time>
      </trkpt>
      <trkpt lat="44.53638" lon="2.2793">
        <ele>397</ele>
        <time>2020-06-15T13:48:14Z</time>
      </trkpt>
      <trkpt lat="44.53657" lon="2.2792">
        <ele>399</ele>
        <time>2020-06-15T13:48:20Z</time>
      </trkpt>
      <trkpt lat="44.53668" lon="2.27911">
        <ele>400</ele>
        <time>2020-06-15T13:48:24Z</time>
      </trkpt>
      <trkpt lat="44.53706" lon="2.27895">
        <ele>400</ele>
        <time>2020-06-15T13:48:36Z</time>
      </trkpt>
      <trkpt lat="44.53712" lon="2.27894">
        <ele>400</ele>
        <time>2020-06-15T13:48:38Z</time>
      </trkpt>
      <trkpt lat="44.53719" lon="2.27897">
        <ele>400</ele>
        <time>2020-06-15T13:48:41Z</time>
      </trkpt>
      <trkpt lat="44.5372" lon="2.27904">
        <ele>400</ele>
        <time>2020-06-15T13:48:43Z</time>
      </trkpt>
      <trkpt lat="44.53717" lon="2.27911">
        <ele>401</ele>
        <time>2020-06-15T13:48:45Z</time>
      </trkpt>
      <trkpt lat="44.53645" lon="2.27978">
        <ele>410</ele>
        <time>2020-06-15T13:49:15Z</time>
      </trkpt>
      <trkpt lat="44.5359" lon="2.28041">
        <ele>417</ele>
        <time>2020-06-15T13:49:41Z</time>
      </trkpt>
      <trkpt lat="44.53583" lon="2.28054">
        <ele>416</ele>
        <time>2020-06-15T13:49:45Z</time>
      </trkpt>
      <trkpt lat="44.53576" lon="2.28084">
        <ele>417</ele>
        <time>2020-06-15T13:49:53Z</time>
      </trkpt>
      <trkpt lat="44.53571" lon="2.28134">
        <ele>420</ele>
        <time>2020-06-15T13:50:05Z</time>
      </trkpt>
      <trkpt lat="44.53567" lon="2.2815">
        <ele>421</ele>
        <time>2020-06-15T13:50:09Z</time>
      </trkpt>
      <trkpt lat="44.53566" lon="2.28158">
        <ele>422</ele>
        <time>2020-06-15T13:50:11Z</time>
      </trkpt>
      <trkpt lat="44.53567" lon="2.28166">
        <ele>424</ele>
        <time>2020-06-15T13:50:13Z</time>
      </trkpt>
      <trkpt lat="44.53571" lon="2.28172">
        <ele>425</ele>
        <time>2020-06-15T13:50:15Z</time>
      </trkpt>
      <trkpt lat="44.53575" lon="2.28174">
        <ele>424</ele>
        <time>2020-06-15T13:50:16Z</time>
      </trkpt>
      <trkpt lat="44.53582" lon="2.28172">
        <ele>424</ele>
        <time>2020-06-15T13:50:17Z</time>
      </trkpt>
      <trkpt lat="44.53599" lon="2.28177">
        <ele>423</ele>
        <time>2020-06-15T13:50:21Z</time>
      </trkpt>
      <trkpt lat="44.53605" lon="2.28185">
        <ele>422</ele>
        <time>2020-06-15T13:50:23Z</time>
      </trkpt>
      <trkpt lat="44.53605" lon="2.28195">
        <ele>420</ele>
        <time>2020-06-15T13:50:25Z</time>
      </trkpt>
      <trkpt lat="44.53592" lon="2.28224">
        <ele>417</ele>
        <time>2020-06-15T13:50:29Z</time>
      </trkpt>
      <trkpt lat="44.53585" lon="2.28231">
        <ele>417</ele>
        <time>2020-06-15T13:50:30Z</time>
      </trkpt>
      <trkpt lat="44.53568" lon="2.28263">
        <ele>415</ele>
        <time>2020-06-15T13:50:34Z</time>
      </trkpt>
      <trkpt lat="44.53525" lon="2.283">
        <ele>412</ele>
        <time>2020-06-15T13:50:40Z</time>
      </trkpt>
      <trkpt lat="44.53523" lon="2.28313">
        <ele>412</ele>
        <time>2020-06-15T13:50:42Z</time>
      </trkpt>
      <trkpt lat="44.53523" lon="2.28326">
        <ele>411</ele>
        <time>2020-06-15T13:50:45Z</time>
      </trkpt>
      <trkpt lat="44.53527" lon="2.28336">
        <ele>410</ele>
        <time>2020-06-15T13:50:48Z</time>
      </trkpt>
      <trkpt lat="44.53525" lon="2.28364">
        <ele>411</ele>
        <time>2020-06-15T13:50:57Z</time>
      </trkpt>
      <trkpt lat="44.53529" lon="2.28381">
        <ele>409</ele>
        <time>2020-06-15T13:51:02Z</time>
      </trkpt>
      <trkpt lat="44.53548" lon="2.28454">
        <ele>412</ele>
        <time>2020-06-15T13:51:19Z</time>
      </trkpt>
      <trkpt lat="44.53552" lon="2.28466">
        <ele>411</ele>
        <time>2020-06-15T13:51:22Z</time>
      </trkpt>
      <trkpt lat="44.53553" lon="2.28479">
        <ele>409</ele>
        <time>2020-06-15T13:51:25Z</time>
      </trkpt>
      <trkpt lat="44.53556" lon="2.2849">
        <ele>408</ele>
        <time>2020-06-15T13:51:28Z</time>
      </trkpt>
      <trkpt lat="44.53559" lon="2.28501">
        <ele>406</ele>
        <time>2020-06-15T13:51:31Z</time>
      </trkpt>
      <trkpt lat="44.53569" lon="2.28525">
        <ele>409</ele>
        <time>2020-06-15T13:51:38Z</time>
      </trkpt>
      <trkpt lat="44.53572" lon="2.28536">
        <ele>413</ele>
        <time>2020-06-15T13:51:41Z</time>
      </trkpt>
      <trkpt lat="44.53582" lon="2.28558">
        <ele>414</ele>
        <time>2020-06-15T13:51:48Z</time>
      </trkpt>
      <trkpt lat="44.53583" lon="2.28568">
        <ele>413</ele>
        <time>2020-06-15T13:51:51Z</time>
      </trkpt>
      <trkpt lat="44.53582" lon="2.28584">
        <ele>420</ele>
        <time>2020-06-15T13:51:54Z</time>
      </trkpt>
      <trkpt lat="44.53583" lon="2.28599">
        <ele>423</ele>
        <time>2020-06-15T13:51:56Z</time>
      </trkpt>
      <trkpt lat="44.53579" lon="2.28612">
        <ele>423</ele>
        <time>2020-06-15T13:51:58Z</time>
      </trkpt>
      <trkpt lat="44.53569" lon="2.28623">
        <ele>422</ele>
        <time>2020-06-15T13:52:00Z</time>
      </trkpt>
      <trkpt lat="44.5355" lon="2.2864">
        <ele>418</ele>
        <time>2020-06-15T13:52:03Z</time>
      </trkpt>
      <trkpt lat="44.53543" lon="2.28646">
        <ele>417</ele>
        <time>2020-06-15T13:52:05Z</time>
      </trkpt>
      <trkpt lat="44.53536" lon="2.28648">
        <ele>417</ele>
        <time>2020-06-15T13:52:07Z</time>
      </trkpt>
      <trkpt lat="44.5353" lon="2.28656">
        <ele>416</ele>
        <time>2020-06-15T13:52:13Z</time>
      </trkpt>
      <trkpt lat="44.53525" lon="2.28662">
        <ele>414</ele>
        <time>2020-06-15T13:52:23Z</time>
      </trkpt>
      <trkpt lat="44.53514" lon="2.28667">
        <ele>410</ele>
        <time>2020-06-15T13:52:32Z</time>
      </trkpt>
      <trkpt lat="44.53496" lon="2.28677">
        <ele>408</ele>
        <time>2020-06-15T13:52:39Z</time>
      </trkpt>
      <trkpt lat="44.53489" lon="2.28681">
        <ele>410</ele>
        <time>2020-06-15T13:52:42Z</time>
      </trkpt>
      <trkpt lat="44.53482" lon="2.2868">
        <ele>410</ele>
        <time>2020-06-15T13:52:45Z</time>
      </trkpt>
      <trkpt lat="44.53466" lon="2.28675">
        <ele>409</ele>
        <time>2020-06-15T13:52:51Z</time>
      </trkpt>
      <trkpt lat="44.53458" lon="2.28672">
        <ele>425</ele>
        <time>2020-06-15T13:52:55Z</time>
      </trkpt>
      <trkpt lat="44.5345" lon="2.28666">
        <ele>423</ele>
        <time>2020-06-15T13:52:59Z</time>
      </trkpt>
      <trkpt lat="44.53426" lon="2.28637">
        <ele>424</ele>
        <time>2020-06-15T13:53:13Z</time>
      </trkpt>
      <trkpt lat="44.53418" lon="2.28637">
        <ele>426</ele>
        <time>2020-06-15T13:53:15Z</time>
      </trkpt>
      <trkpt lat="44.53413" lon="2.28632">
        <ele>425</ele>
        <time>2020-06-15T13:53:17Z</time>
      </trkpt>
      <trkpt lat="44.53406" lon="2.2863">
        <ele>424</ele>
        <time>2020-06-15T13:53:19Z</time>
      </trkpt>
      <trkpt lat="44.53405" lon="2.28619">
        <ele>425</ele>
        <time>2020-06-15T13:53:21Z</time>
      </trkpt>
      <trkpt lat="44.53398" lon="2.28618">
        <ele>424</ele>
        <time>2020-06-15T13:53:23Z</time>
      </trkpt>
      <trkpt lat="44.53392" lon="2.28612">
        <ele>426</ele>
        <time>2020-06-15T13:53:27Z</time>
      </trkpt>
      <trkpt lat="44.53386" lon="2.28606">
        <ele>426</ele>
        <time>2020-06-15T13:53:30Z</time>
      </trkpt>
      <trkpt lat="44.53381" lon="2.28596">
        <ele>426</ele>
        <time>2020-06-15T13:53:35Z</time>
      </trkpt>
      <trkpt lat="44.53374" lon="2.28586">
        <ele>427</ele>
        <time>2020-06-15T13:53:39Z</time>
      </trkpt>
      <trkpt lat="44.53369" lon="2.28577">
        <ele>427</ele>
        <time>2020-06-15T13:53:43Z</time>
      </trkpt>
      <trkpt lat="44.53361" lon="2.2857">
        <ele>429</ele>
        <time>2020-06-15T13:53:47Z</time>
      </trkpt>
      <trkpt lat="44.53346" lon="2.28547">
        <ele>431</ele>
        <time>2020-06-15T13:53:57Z</time>
      </trkpt>
      <trkpt lat="44.53343" lon="2.28537">
        <ele>432</ele>
        <time>2020-06-15T13:54:01Z</time>
      </trkpt>
      <trkpt lat="44.53338" lon="2.28526">
        <ele>430</ele>
        <time>2020-06-15T13:54:06Z</time>
      </trkpt>
      <trkpt lat="44.53331" lon="2.28522">
        <ele>427</ele>
        <time>2020-06-15T13:54:09Z</time>
      </trkpt>
      <trkpt lat="44.53316" lon="2.28526">
        <ele>430</ele>
        <time>2020-06-15T13:54:15Z</time>
      </trkpt>
      <trkpt lat="44.53303" lon="2.28538">
        <ele>435</ele>
        <time>2020-06-15T13:54:21Z</time>
      </trkpt>
      <trkpt lat="44.53299" lon="2.28542">
        <ele>436</ele>
        <time>2020-06-15T13:54:23Z</time>
      </trkpt>
      <trkpt lat="44.53291" lon="2.28553">
        <ele>439</ele>
        <time>2020-06-15T13:54:27Z</time>
      </trkpt>
      <trkpt lat="44.53282" lon="2.28561">
        <ele>440</ele>
        <time>2020-06-15T13:54:31Z</time>
      </trkpt>
      <trkpt lat="44.53272" lon="2.28567">
        <ele>441</ele>
        <time>2020-06-15T13:54:36Z</time>
      </trkpt>
      <trkpt lat="44.5326" lon="2.28605">
        <ele>442</ele>
        <time>2020-06-15T13:54:46Z</time>
      </trkpt>
      <trkpt lat="44.53256" lon="2.28622">
        <ele>442</ele>
        <time>2020-06-15T13:54:50Z</time>
      </trkpt>
      <trkpt lat="44.53253" lon="2.2863">
        <ele>442</ele>
        <time>2020-06-15T13:54:52Z</time>
      </trkpt>
      <trkpt lat="44.53243" lon="2.28665">
        <ele>443</ele>
        <time>2020-06-15T13:55:00Z</time>
      </trkpt>
      <trkpt lat="44.53224" lon="2.28747">
        <ele>443</ele>
        <time>2020-06-15T13:55:13Z</time>
      </trkpt>
      <trkpt lat="44.53217" lon="2.28759">
        <ele>442</ele>
        <time>2020-06-15T13:55:15Z</time>
      </trkpt>
      <trkpt lat="44.53171" lon="2.28844">
        <ele>439</ele>
        <time>2020-06-15T13:55:26Z</time>
      </trkpt>
      <trkpt lat="44.53165" lon="2.28851">
        <ele>436</ele>
        <time>2020-06-15T13:55:27Z</time>
      </trkpt>
      <trkpt lat="44.53161" lon="2.28862">
        <ele>434</ele>
        <time>2020-06-15T13:55:28Z</time>
      </trkpt>
      <trkpt lat="44.53103" lon="2.28944">
        <ele>434</ele>
        <time>2020-06-15T13:55:38Z</time>
      </trkpt>
      <trkpt lat="44.53095" lon="2.28955">
        <ele>431</ele>
        <time>2020-06-15T13:55:40Z</time>
      </trkpt>
      <trkpt lat="44.53087" lon="2.28983">
        <ele>429</ele>
        <time>2020-06-15T13:55:43Z</time>
      </trkpt>
      <trkpt lat="44.5308" lon="2.28998">
        <ele>428</ele>
        <time>2020-06-15T13:55:45Z</time>
      </trkpt>
      <trkpt lat="44.53059" lon="2.29047">
        <ele>430</ele>
        <time>2020-06-15T13:55:55Z</time>
      </trkpt>
      <trkpt lat="44.53052" lon="2.29054">
        <ele>430</ele>
        <time>2020-06-15T13:55:57Z</time>
      </trkpt>
      <trkpt lat="44.53047" lon="2.29062">
        <ele>430</ele>
        <time>2020-06-15T13:55:59Z</time>
      </trkpt>
      <trkpt lat="44.53046" lon="2.29069">
        <ele>430</ele>
        <time>2020-06-15T13:56:01Z</time>
      </trkpt>
      <trkpt lat="44.53042" lon="2.29074">
        <ele>430</ele>
        <time>2020-06-15T13:56:03Z</time>
      </trkpt>
      <trkpt lat="44.53039" lon="2.29095">
        <ele>432</ele>
        <time>2020-06-15T13:56:09Z</time>
      </trkpt>
      <trkpt lat="44.53025" lon="2.29156">
        <ele>435</ele>
        <time>2020-06-15T13:56:27Z</time>
      </trkpt>
      <trkpt lat="44.53024" lon="2.29166">
        <ele>436</ele>
        <time>2020-06-15T13:56:30Z</time>
      </trkpt>
      <trkpt lat="44.53023" lon="2.29186">
        <ele>440</ele>
        <time>2020-06-15T13:56:36Z</time>
      </trkpt>
      <trkpt lat="44.53023" lon="2.29195">
        <ele>441</ele>
        <time>2020-06-15T13:56:39Z</time>
      </trkpt>
      <trkpt lat="44.5302" lon="2.2922">
        <ele>440</ele>
        <time>2020-06-15T13:56:48Z</time>
      </trkpt>
      <trkpt lat="44.53021" lon="2.29226">
        <ele>441</ele>
        <time>2020-06-15T13:56:51Z</time>
      </trkpt>
      <trkpt lat="44.53041" lon="2.2925">
        <ele>440</ele>
        <time>2020-06-15T13:57:02Z</time>
      </trkpt>
      <trkpt lat="44.53044" lon="2.29257">
        <ele>439</ele>
        <time>2020-06-15T13:57:03Z</time>
      </trkpt>
      <trkpt lat="44.53055" lon="2.29273">
        <ele>432</ele>
        <time>2020-06-15T13:57:05Z</time>
      </trkpt>
      <trkpt lat="44.53059" lon="2.2929">
        <ele>434</ele>
        <time>2020-06-15T13:57:07Z</time>
      </trkpt>
      <trkpt lat="44.53064" lon="2.29308">
        <ele>436</ele>
        <time>2020-06-15T13:57:09Z</time>
      </trkpt>
      <trkpt lat="44.53074" lon="2.29339">
        <ele>441</ele>
        <time>2020-06-15T13:57:15Z</time>
      </trkpt>
      <trkpt lat="44.53076" lon="2.29347">
        <ele>441</ele>
        <time>2020-06-15T13:57:17Z</time>
      </trkpt>
      <trkpt lat="44.53081" lon="2.29354">
        <ele>440</ele>
        <time>2020-06-15T13:57:19Z</time>
      </trkpt>
      <trkpt lat="44.53091" lon="2.29367">
        <ele>442</ele>
        <time>2020-06-15T13:57:23Z</time>
      </trkpt>
      <trkpt lat="44.53098" lon="2.29372">
        <ele>443</ele>
        <time>2020-06-15T13:57:25Z</time>
      </trkpt>
      <trkpt lat="44.53126" lon="2.29376">
        <ele>442</ele>
        <time>2020-06-15T13:57:32Z</time>
      </trkpt>
      <trkpt lat="44.53133" lon="2.29379">
        <ele>442</ele>
        <time>2020-06-15T13:57:34Z</time>
      </trkpt>
      <trkpt lat="44.53142" lon="2.29392">
        <ele>442</ele>
        <time>2020-06-15T13:57:39Z</time>
      </trkpt>
      <trkpt lat="44.53148" lon="2.29396">
        <ele>442</ele>
        <time>2020-06-15T13:57:41Z</time>
      </trkpt>
      <trkpt lat="44.53244" lon="2.29387">
        <ele>443</ele>
        <time>2020-06-15T13:57:58Z</time>
      </trkpt>
      <trkpt lat="44.53304" lon="2.29384">
        <ele>443</ele>
        <time>2020-06-15T13:58:11Z</time>
      </trkpt>
      <trkpt lat="44.53319" lon="2.29381">
        <ele>443</ele>
        <time>2020-06-15T13:58:15Z</time>
      </trkpt>
      <trkpt lat="44.53327" lon="2.2938">
        <ele>443</ele>
        <time>2020-06-15T13:58:18Z</time>
      </trkpt>
      <trkpt lat="44.53339" lon="2.29381">
        <ele>444</ele>
        <time>2020-06-15T13:58:20Z</time>
      </trkpt>
      <trkpt lat="44.53345" lon="2.29382">
        <ele>445</ele>
        <time>2020-06-15T13:58:21Z</time>
      </trkpt>
      <trkpt lat="44.53361" lon="2.29385">
        <ele>445</ele>
        <time>2020-06-15T13:58:23Z</time>
      </trkpt>
      <trkpt lat="44.53375" lon="2.2939">
        <ele>446</ele>
        <time>2020-06-15T13:58:25Z</time>
      </trkpt>
      <trkpt lat="44.53424" lon="2.29394">
        <ele>446</ele>
        <time>2020-06-15T13:58:30Z</time>
      </trkpt>
      <trkpt lat="44.5344" lon="2.29396">
        <ele>442</ele>
        <time>2020-06-15T13:58:32Z</time>
      </trkpt>
      <trkpt lat="44.53454" lon="2.29396">
        <ele>440</ele>
        <time>2020-06-15T13:58:34Z</time>
      </trkpt>
      <trkpt lat="44.5347" lon="2.29386">
        <ele>435</ele>
        <time>2020-06-15T13:58:38Z</time>
      </trkpt>
      <trkpt lat="44.5348" lon="2.29375">
        <ele>433</ele>
        <time>2020-06-15T13:58:40Z</time>
      </trkpt>
      <trkpt lat="44.53511" lon="2.29311">
        <ele>426</ele>
        <time>2020-06-15T13:58:49Z</time>
      </trkpt>
      <trkpt lat="44.53518" lon="2.29303">
        <ele>425</ele>
        <time>2020-06-15T13:58:51Z</time>
      </trkpt>
      <trkpt lat="44.53531" lon="2.29277">
        <ele>422</ele>
        <time>2020-06-15T13:58:55Z</time>
      </trkpt>
      <trkpt lat="44.53535" lon="2.29267">
        <ele>420</ele>
        <time>2020-06-15T13:58:57Z</time>
      </trkpt>
      <trkpt lat="44.53541" lon="2.29262">
        <ele>420</ele>
        <time>2020-06-15T13:58:58Z</time>
      </trkpt>
      <trkpt lat="44.53549" lon="2.29248">
        <ele>418</ele>
        <time>2020-06-15T13:59:00Z</time>
      </trkpt>
      <trkpt lat="44.53554" lon="2.29228">
        <ele>416</ele>
        <time>2020-06-15T13:59:03Z</time>
      </trkpt>
      <trkpt lat="44.53561" lon="2.29208">
        <ele>415</ele>
        <time>2020-06-15T13:59:07Z</time>
      </trkpt>
      <trkpt lat="44.53562" lon="2.29199">
        <ele>416</ele>
        <time>2020-06-15T13:59:08Z</time>
      </trkpt>
      <trkpt lat="44.53567" lon="2.29189">
        <ele>418</ele>
        <time>2020-06-15T13:59:10Z</time>
      </trkpt>
      <trkpt lat="44.53568" lon="2.29182">
        <ele>419</ele>
        <time>2020-06-15T13:59:11Z</time>
      </trkpt>
      <trkpt lat="44.53576" lon="2.29153">
        <ele>419</ele>
        <time>2020-06-15T13:59:16Z</time>
      </trkpt>
      <trkpt lat="44.53629" lon="2.29097">
        <ele>413</ele>
        <time>2020-06-15T13:59:25Z</time>
      </trkpt>
      <trkpt lat="44.53649" lon="2.29069">
        <ele>406</ele>
        <time>2020-06-15T13:59:29Z</time>
      </trkpt>
      <trkpt lat="44.53655" lon="2.29064">
        <ele>405</ele>
        <time>2020-06-15T13:59:30Z</time>
      </trkpt>
      <trkpt lat="44.53719" lon="2.28953">
        <ele>397</ele>
        <time>2020-06-15T13:59:46Z</time>
      </trkpt>
      <trkpt lat="44.53733" lon="2.28938">
        <ele>394</ele>
        <time>2020-06-15T13:59:50Z</time>
      </trkpt>
      <trkpt lat="44.5374" lon="2.28931">
        <ele>393</ele>
        <time>2020-06-15T13:59:52Z</time>
      </trkpt>
      <trkpt lat="44.53744" lon="2.28925">
        <ele>391</ele>
        <time>2020-06-15T13:59:53Z</time>
      </trkpt>
      <trkpt lat="44.53746" lon="2.28917">
        <ele>391</ele>
        <time>2020-06-15T13:59:54Z</time>
      </trkpt>
      <trkpt lat="44.53773" lon="2.28882">
        <ele>389</ele>
        <time>2020-06-15T14:00:00Z</time>
      </trkpt>
      <trkpt lat="44.53781" lon="2.28877">
        <ele>389</ele>
        <time>2020-06-15T14:00:02Z</time>
      </trkpt>
      <trkpt lat="44.53817" lon="2.28842">
        <ele>378</ele>
        <time>2020-06-15T14:00:09Z</time>
      </trkpt>
      <trkpt lat="44.53821" lon="2.28837">
        <ele>376</ele>
        <time>2020-06-15T14:00:10Z</time>
      </trkpt>
      <trkpt lat="44.53851" lon="2.28805">
        <ele>369</ele>
        <time>2020-06-15T14:00:16Z</time>
      </trkpt>
      <trkpt lat="44.53867" lon="2.2878">
        <ele>366</ele>
        <time>2020-06-15T14:00:20Z</time>
      </trkpt>
      <trkpt lat="44.5387" lon="2.28772">
        <ele>364</ele>
        <time>2020-06-15T14:00:21Z</time>
      </trkpt>
      <trkpt lat="44.53871" lon="2.28764">
        <ele>364</ele>
        <time>2020-06-15T14:00:22Z</time>
      </trkpt>
      <trkpt lat="44.53877" lon="2.28751">
        <ele>362</ele>
        <time>2020-06-15T14:00:24Z</time>
      </trkpt>
      <trkpt lat="44.53882" lon="2.28746">
        <ele>360</ele>
        <time>2020-06-15T14:00:25Z</time>
      </trkpt>
      <trkpt lat="44.53883" lon="2.28739">
        <ele>359</ele>
        <time>2020-06-15T14:00:26Z</time>
      </trkpt>
      <trkpt lat="44.53892" lon="2.28723">
        <ele>355</ele>
        <time>2020-06-15T14:00:29Z</time>
      </trkpt>
      <trkpt lat="44.53902" lon="2.28721">
        <ele>355</ele>
        <time>2020-06-15T14:00:31Z</time>
      </trkpt>
      <trkpt lat="44.53906" lon="2.28718">
        <ele>354</ele>
        <time>2020-06-15T14:00:32Z</time>
      </trkpt>
      <trkpt lat="44.53911" lon="2.28704">
        <ele>353</ele>
        <time>2020-06-15T14:00:34Z</time>
      </trkpt>
      <trkpt lat="44.53907" lon="2.28666">
        <ele>349</ele>
        <time>2020-06-15T14:00:39Z</time>
      </trkpt>
      <trkpt lat="44.53908" lon="2.28658">
        <ele>348</ele>
        <time>2020-06-15T14:00:40Z</time>
      </trkpt>
      <trkpt lat="44.53909" lon="2.2865">
        <ele>347</ele>
        <time>2020-06-15T14:00:41Z</time>
      </trkpt>
      <trkpt lat="44.53912" lon="2.28642">
        <ele>346</ele>
        <time>2020-06-15T14:00:42Z</time>
      </trkpt>
      <trkpt lat="44.53916" lon="2.28617">
        <ele>344</ele>
        <time>2020-06-15T14:00:45Z</time>
      </trkpt>
      <trkpt lat="44.53915" lon="2.28609">
        <ele>343</ele>
        <time>2020-06-15T14:00:46Z</time>
      </trkpt>
      <trkpt lat="44.5392" lon="2.28578">
        <ele>343</ele>
        <time>2020-06-15T14:00:50Z</time>
      </trkpt>
      <trkpt lat="44.53919" lon="2.28551">
        <ele>341</ele>
        <time>2020-06-15T14:00:53Z</time>
      </trkpt>
      <trkpt lat="44.53919" lon="2.28543">
        <ele>340</ele>
        <time>2020-06-15T14:00:54Z</time>
      </trkpt>
      <trkpt lat="44.53919" lon="2.28535">
        <ele>340</ele>
        <time>2020-06-15T14:00:55Z</time>
      </trkpt>
      <trkpt lat="44.53919" lon="2.28527">
        <ele>340</ele>
        <time>2020-06-15T14:00:56Z</time>
      </trkpt>
      <trkpt lat="44.53917" lon="2.28505">
        <ele>340</ele>
        <time>2020-06-15T14:00:59Z</time>
      </trkpt>
      <trkpt lat="44.53916" lon="2.28473">
        <ele>339</ele>
        <time>2020-06-15T14:01:03Z</time>
      </trkpt>
      <trkpt lat="44.53932" lon="2.2837">
        <ele>336</ele>
        <time>2020-06-15T14:01:17Z</time>
      </trkpt>
      <trkpt lat="44.53935" lon="2.28363">
        <ele>336</ele>
        <time>2020-06-15T14:01:18Z</time>
      </trkpt>
      <trkpt lat="44.53937" lon="2.28356">
        <ele>336</ele>
        <time>2020-06-15T14:01:19Z</time>
      </trkpt>
      <trkpt lat="44.53949" lon="2.28329">
        <ele>337</ele>
        <time>2020-06-15T14:01:23Z</time>
      </trkpt>
      <trkpt lat="44.53954" lon="2.28298">
        <ele>337</ele>
        <time>2020-06-15T14:01:27Z</time>
      </trkpt>
      <trkpt lat="44.5396" lon="2.28224">
        <ele>335</ele>
        <time>2020-06-15T14:01:37Z</time>
      </trkpt>
      <trkpt lat="44.53959" lon="2.28217">
        <ele>335</ele>
        <time>2020-06-15T14:01:38Z</time>
      </trkpt>
      <trkpt lat="44.53975" lon="2.28184">
        <ele>334</ele>
        <time>2020-06-15T14:01:43Z</time>
      </trkpt>
      <trkpt lat="44.53976" lon="2.28176">
        <ele>334</ele>
        <time>2020-06-15T14:01:44Z</time>
      </trkpt>
      <trkpt lat="44.53994" lon="2.28114">
        <ele>334</ele>
        <time>2020-06-15T14:01:53Z</time>
      </trkpt>
      <trkpt lat="44.54006" lon="2.28081">
        <ele>333</ele>
        <time>2020-06-15T14:01:59Z</time>
      </trkpt>
      <trkpt lat="44.54008" lon="2.28069">
        <ele>333</ele>
        <time>2020-06-15T14:02:01Z</time>
      </trkpt>
      <trkpt lat="44.5401" lon="2.28065">
        <ele>333</ele>
        <time>2020-06-15T14:02:02Z</time>
      </trkpt>
      <trkpt lat="44.54016" lon="2.28054">
        <ele>333</ele>
        <time>2020-06-15T14:02:04Z</time>
      </trkpt>
      <trkpt lat="44.54024" lon="2.28044">
        <ele>332</ele>
        <time>2020-06-15T14:02:06Z</time>
      </trkpt>
      <trkpt lat="44.54031" lon="2.2802">
        <ele>333</ele>
        <time>2020-06-15T14:02:10Z</time>
      </trkpt>
      <trkpt lat="44.54035" lon="2.28012">
        <ele>334</ele>
        <time>2020-06-15T14:02:11Z</time>
      </trkpt>
      <trkpt lat="44.54085" lon="2.27876">
        <ele>333</ele>
        <time>2020-06-15T14:02:33Z</time>
      </trkpt>
      <trkpt lat="44.54089" lon="2.27871">
        <ele>333</ele>
        <time>2020-06-15T14:02:34Z</time>
      </trkpt>
      <trkpt lat="44.54093" lon="2.27867">
        <ele>334</ele>
        <time>2020-06-15T14:02:35Z</time>
      </trkpt>
      <trkpt lat="44.54104" lon="2.27874">
        <ele>333</ele>
        <time>2020-06-15T14:02:37Z</time>
      </trkpt>
      <trkpt lat="44.54131" lon="2.27908">
        <ele>334</ele>
        <time>2020-06-15T14:02:45Z</time>
      </trkpt>
      <trkpt lat="44.54141" lon="2.27916">
        <ele>334</ele>
        <time>2020-06-15T14:02:48Z</time>
      </trkpt>
      <trkpt lat="44.54155" lon="2.27912">
        <ele>335</ele>
        <time>2020-06-15T14:02:52Z</time>
      </trkpt>
      <trkpt lat="44.54161" lon="2.27907">
        <ele>335</ele>
        <time>2020-06-15T14:02:54Z</time>
      </trkpt>
      <trkpt lat="44.54189" lon="2.27846">
        <ele>337</ele>
        <time>2020-06-15T14:03:08Z</time>
      </trkpt>
      <trkpt lat="44.54204" lon="2.2781">
        <ele>339</ele>
        <time>2020-06-15T14:03:16Z</time>
      </trkpt>
      <trkpt lat="44.54209" lon="2.27803">
        <ele>340</ele>
        <time>2020-06-15T14:03:18Z</time>
      </trkpt>
      <trkpt lat="44.54214" lon="2.27799">
        <ele>341</ele>
        <time>2020-06-15T14:03:20Z</time>
      </trkpt>
      <trkpt lat="44.54221" lon="2.27797">
        <ele>341</ele>
        <time>2020-06-15T14:03:22Z</time>
      </trkpt>
      <trkpt lat="44.54228" lon="2.27799">
        <ele>341</ele>
        <time>2020-06-15T14:03:24Z</time>
      </trkpt>
      <trkpt lat="44.54233" lon="2.27804">
        <ele>341</ele>
        <time>2020-06-15T14:03:26Z</time>
      </trkpt>
      <trkpt lat="44.54237" lon="2.27811">
        <ele>341</ele>
        <time>2020-06-15T14:03:28Z</time>
      </trkpt>
      <trkpt lat="44.54242" lon="2.27835">
        <ele>343</ele>
        <time>2020-06-15T14:03:34Z</time>
      </trkpt>
      <trkpt lat="44.54242" lon="2.27843">
        <ele>344</ele>
        <time>2020-06-15T14:03:36Z</time>
      </trkpt>
      <trkpt lat="44.54243" lon="2.27854">
        <ele>344</ele>
        <time>2020-06-15T14:03:39Z</time>
      </trkpt>
      <trkpt lat="44.54249" lon="2.27866">
        <ele>345</ele>
        <time>2020-06-15T14:03:43Z</time>
      </trkpt>
      <trkpt lat="44.54254" lon="2.27871">
        <ele>347</ele>
        <time>2020-06-15T14:03:46Z</time>
      </trkpt>
      <trkpt lat="44.54262" lon="2.27875">
        <ele>349</ele>
        <time>2020-06-15T14:03:50Z</time>
      </trkpt>
      <trkpt lat="44.54273" lon="2.27879">
        <ele>351</ele>
        <time>2020-06-15T14:03:55Z</time>
      </trkpt>
      <trkpt lat="44.54277" lon="2.27885">
        <ele>351</ele>
        <time>2020-06-15T14:03:58Z</time>
      </trkpt>
      <trkpt lat="44.54281" lon="2.27905">
        <ele>354</ele>
        <time>2020-06-15T14:04:05Z</time>
      </trkpt>
      <trkpt lat="44.54295" lon="2.27939">
        <ele>358</ele>
        <time>2020-06-15T14:04:18Z</time>
      </trkpt>
      <trkpt lat="44.54296" lon="2.27945">
        <ele>359</ele>
        <time>2020-06-15T14:04:21Z</time>
      </trkpt>
      <trkpt lat="44.54298" lon="2.27952">
        <ele>359</ele>
        <time>2020-06-15T14:04:24Z</time>
      </trkpt>
      <trkpt lat="44.54303" lon="2.27956">
        <ele>361</ele>
        <time>2020-06-15T14:04:27Z</time>
      </trkpt>
      <trkpt lat="44.54309" lon="2.27955">
        <ele>361</ele>
        <time>2020-06-15T14:04:30Z</time>
      </trkpt>
      <trkpt lat="44.54316" lon="2.27946">
        <ele>362</ele>
        <time>2020-06-15T14:04:35Z</time>
      </trkpt>
      <trkpt lat="44.54319" lon="2.27941">
        <ele>361</ele>
        <time>2020-06-15T14:04:38Z</time>
      </trkpt>
      <trkpt lat="44.54351" lon="2.27922">
        <ele>363</ele>
        <time>2020-06-15T14:04:55Z</time>
      </trkpt>
      <trkpt lat="44.54356" lon="2.27921">
        <ele>363</ele>
        <time>2020-06-15T14:04:57Z</time>
      </trkpt>
      <trkpt lat="44.54389" lon="2.279">
        <ele>375</ele>
        <time>2020-06-15T14:05:16Z</time>
      </trkpt>
      <trkpt lat="44.54394" lon="2.279">
        <ele>375</ele>
        <time>2020-06-15T14:05:18Z</time>
      </trkpt>
      <trkpt lat="44.5441" lon="2.27894">
        <ele>377</ele>
        <time>2020-06-15T14:05:26Z</time>
      </trkpt>
      <trkpt lat="44.54438" lon="2.27857">
        <ele>378</ele>
        <time>2020-06-15T14:05:38Z</time>
      </trkpt>
      <trkpt lat="44.54447" lon="2.2784">
        <ele>377</ele>
        <time>2020-06-15T14:05:44Z</time>
      </trkpt>
      <trkpt lat="44.54487" lon="2.27775">
        <ele>376</ele>
        <time>2020-06-15T14:06:06Z</time>
      </trkpt>
      <trkpt lat="44.54504" lon="2.27728">
        <ele>371</ele>
        <time>2020-06-15T14:06:18Z</time>
      </trkpt>
      <trkpt lat="44.54507" lon="2.27709">
        <ele>371</ele>
        <time>2020-06-15T14:06:22Z</time>
      </trkpt>
      <trkpt lat="44.54508" lon="2.2769">
        <ele>372</ele>
        <time>2020-06-15T14:06:26Z</time>
      </trkpt>
      <trkpt lat="44.54508" lon="2.27681">
        <ele>372</ele>
        <time>2020-06-15T14:06:28Z</time>
      </trkpt>
      <trkpt lat="44.54507" lon="2.27672">
        <ele>372</ele>
        <time>2020-06-15T14:06:30Z</time>
      </trkpt>
      <trkpt lat="44.54524" lon="2.27572">
        <ele>378</ele>
        <time>2020-06-15T14:07:01Z</time>
      </trkpt>
      <trkpt lat="44.54525" lon="2.2756">
        <ele>381</ele>
        <time>2020-06-15T14:07:05Z</time>
      </trkpt>
      <trkpt lat="44.54528" lon="2.27543">
        <ele>383</ele>
        <time>2020-06-15T14:07:11Z</time>
      </trkpt>
      <trkpt lat="44.54533" lon="2.27519">
        <ele>384</ele>
        <time>2020-06-15T14:07:19Z</time>
      </trkpt>
      <trkpt lat="44.54526" lon="2.27436">
        <ele>402</ele>
        <time>2020-06-15T14:07:49Z</time>
      </trkpt>
      <trkpt lat="44.54526" lon="2.27427">
        <ele>402</ele>
        <time>2020-06-15T14:07:52Z</time>
      </trkpt>
      <trkpt lat="44.5453" lon="2.27425">
        <ele>403</ele>
        <time>2020-06-15T14:07:55Z</time>
      </trkpt>
      <trkpt lat="44.54545" lon="2.27445">
        <ele>399</ele>
        <time>2020-06-15T14:08:05Z</time>
      </trkpt>
      <trkpt lat="44.54549" lon="2.27452">
        <ele>398</ele>
        <time>2020-06-15T14:08:09Z</time>
      </trkpt>
      <trkpt lat="44.54552" lon="2.27459">
        <ele>403</ele>
        <time>2020-06-15T14:08:12Z</time>
      </trkpt>
      <trkpt lat="44.54559" lon="2.27476">
        <ele>404</ele>
        <time>2020-06-15T14:08:19Z</time>
      </trkpt>
      <trkpt lat="44.54568" lon="2.27509">
        <ele>420</ele>
        <time>2020-06-15T14:08:31Z</time>
      </trkpt>
      <trkpt lat="44.5457" lon="2.27518">
        <ele>416</ele>
        <time>2020-06-15T14:08:34Z</time>
      </trkpt>
      <trkpt lat="44.54575" lon="2.27531">
        <ele>421</ele>
        <time>2020-06-15T14:08:39Z</time>
      </trkpt>
      <trkpt lat="44.54575" lon="2.27541">
        <ele>417</ele>
        <time>2020-06-15T14:08:42Z</time>
      </trkpt>
      <trkpt lat="44.54577" lon="2.27553">
        <ele>410</ele>
        <time>2020-06-15T14:08:45Z</time>
      </trkpt>
      <trkpt lat="44.54582" lon="2.27561">
        <ele>407</ele>
        <time>2020-06-15T14:08:48Z</time>
      </trkpt>
      <trkpt lat="44.54587" lon="2.27572">
        <ele>404</ele>
        <time>2020-06-15T14:08:52Z</time>
      </trkpt>
      <trkpt lat="44.54592" lon="2.27584">
        <ele>404</ele>
        <time>2020-06-15T14:08:57Z</time>
      </trkpt>
      <trkpt lat="44.54595" lon="2.27595">
        <ele>404</ele>
        <time>2020-06-15T14:09:01Z</time>
      </trkpt>
      <trkpt lat="44.54595" lon="2.27605">
        <ele>407</ele>
        <time>2020-06-15T14:09:04Z</time>
      </trkpt>
      <trkpt lat="44.54598" lon="2.2763">
        <ele>419</ele>
        <time>2020-06-15T14:09:12Z</time>
      </trkpt>
      <trkpt lat="44.54601" lon="2.27645">
        <ele>417</ele>
        <time>2020-06-15T14:09:17Z</time>
      </trkpt>
      <trkpt lat="44.546" lon="2.27698">
        <ele>417</ele>
        <time>2020-06-15T14:09:31Z</time>
      </trkpt>
      <trkpt lat="44.54598" lon="2.27707">
        <ele>419</ele>
        <time>2020-06-15T14:09:33Z</time>
      </trkpt>
      <trkpt lat="44.54596" lon="2.27714">
        <ele>421</ele>
        <time>2020-06-15T14:09:35Z</time>
      </trkpt>
      <trkpt lat="44.54596" lon="2.27721">
        <ele>421</ele>
        <time>2020-06-15T14:09:37Z</time>
      </trkpt>
      <trkpt lat="44.54596" lon="2.27736">
        <ele>421</ele>
        <time>2020-06-15T14:09:42Z</time>
      </trkpt>
      <trkpt lat="44.54597" lon="2.27762">
        <ele>422</ele>
        <time>2020-06-15T14:09:49Z</time>
      </trkpt>
      <trkpt lat="44.54592" lon="2.27788">
        <ele>424</ele>
        <time>2020-06-15T14:09:59Z</time>
      </trkpt>
      <trkpt lat="44.5459" lon="2.278">
        <ele>426</ele>
        <time>2020-06-15T14:10:04Z</time>
      </trkpt>
      <trkpt lat="44.54587" lon="2.27809">
        <ele>428</ele>
        <time>2020-06-15T14:10:07Z</time>
      </trkpt>
      <trkpt lat="44.54582" lon="2.27817">
        <ele>429</ele>
        <time>2020-06-15T14:10:10Z</time>
      </trkpt>
      <trkpt lat="44.54574" lon="2.27835">
        <ele>402</ele>
        <time>2020-06-15T14:10:18Z</time>
      </trkpt>
      <trkpt lat="44.54569" lon="2.27854">
        <ele>410</ele>
        <time>2020-06-15T14:10:23Z</time>
      </trkpt>
      <trkpt lat="44.54568" lon="2.2788">
        <ele>415</ele>
        <time>2020-06-15T14:10:30Z</time>
      </trkpt>
      <trkpt lat="44.54564" lon="2.27892">
        <ele>417</ele>
        <time>2020-06-15T14:10:34Z</time>
      </trkpt>
      <trkpt lat="44.54558" lon="2.27916">
        <ele>417</ele>
        <time>2020-06-15T14:10:40Z</time>
      </trkpt>
      <trkpt lat="44.54554" lon="2.27927">
        <ele>420</ele>
        <time>2020-06-15T14:10:44Z</time>
      </trkpt>
      <trkpt lat="44.54553" lon="2.27938">
        <ele>420</ele>
        <time>2020-06-15T14:10:47Z</time>
      </trkpt>
      <trkpt lat="44.54556" lon="2.27945">
        <ele>422</ele>
        <time>2020-06-15T14:10:50Z</time>
      </trkpt>
      <trkpt lat="44.54561" lon="2.27938">
        <ele>403</ele>
        <time>2020-06-15T14:10:54Z</time>
      </trkpt>
      <trkpt lat="44.54628" lon="2.27807">
        <ele>427</ele>
        <time>2020-06-15T14:11:25Z</time>
      </trkpt>
      <trkpt lat="44.54633" lon="2.27796">
        <ele>427</ele>
        <time>2020-06-15T14:11:28Z</time>
      </trkpt>
      <trkpt lat="44.54639" lon="2.27779">
        <ele>426</ele>
        <time>2020-06-15T14:11:31Z</time>
      </trkpt>
      <trkpt lat="44.54641" lon="2.27769">
        <ele>425</ele>
        <time>2020-06-15T14:11:32Z</time>
      </trkpt>
      <trkpt lat="44.54651" lon="2.27679">
        <ele>384</ele>
        <time>2020-06-15T14:11:44Z</time>
      </trkpt>
      <trkpt lat="44.54653" lon="2.27626">
        <ele>413</ele>
        <time>2020-06-15T14:11:52Z</time>
      </trkpt>
      <trkpt lat="44.54652" lon="2.27618">
        <ele>415</ele>
        <time>2020-06-15T14:11:53Z</time>
      </trkpt>
      <trkpt lat="44.54651" lon="2.27605">
        <ele>419</ele>
        <time>2020-06-15T14:11:55Z</time>
      </trkpt>
      <trkpt lat="44.54655" lon="2.27594">
        <ele>421</ele>
        <time>2020-06-15T14:11:57Z</time>
      </trkpt>
      <trkpt lat="44.54644" lon="2.27563">
        <ele>424</ele>
        <time>2020-06-15T14:12:02Z</time>
      </trkpt>
      <trkpt lat="44.54636" lon="2.27553">
        <ele>424</ele>
        <time>2020-06-15T14:12:04Z</time>
      </trkpt>
      <trkpt lat="44.54634" lon="2.27539">
        <ele>423</ele>
        <time>2020-06-15T14:12:06Z</time>
      </trkpt>
      <trkpt lat="44.54631" lon="2.27525">
        <ele>424</ele>
        <time>2020-06-15T14:12:08Z</time>
      </trkpt>
      <trkpt lat="44.54623" lon="2.27493">
        <ele>427</ele>
        <time>2020-06-15T14:12:13Z</time>
      </trkpt>
      <trkpt lat="44.54621" lon="2.27482">
        <ele>428</ele>
        <time>2020-06-15T14:12:15Z</time>
      </trkpt>
      <trkpt lat="44.54617" lon="2.27456">
        <ele>431</ele>
        <time>2020-06-15T14:12:19Z</time>
      </trkpt>
      <trkpt lat="44.54609" lon="2.27433">
        <ele>430</ele>
        <time>2020-06-15T14:12:23Z</time>
      </trkpt>
      <trkpt lat="44.54594" lon="2.27396">
        <ele>430</ele>
        <time>2020-06-15T14:12:29Z</time>
      </trkpt>
      <trkpt lat="44.5459" lon="2.27382">
        <ele>430</ele>
        <time>2020-06-15T14:12:31Z</time>
      </trkpt>
      <trkpt lat="44.54589" lon="2.27375">
        <ele>431</ele>
        <time>2020-06-15T14:12:32Z</time>
      </trkpt>
      <trkpt lat="44.54591" lon="2.27369">
        <ele>431</ele>
        <time>2020-06-15T14:12:33Z</time>
      </trkpt>
      <trkpt lat="44.54593" lon="2.27363">
        <ele>431</ele>
        <time>2020-06-15T14:12:34Z</time>
      </trkpt>
      <trkpt lat="44.54597" lon="2.27359">
        <ele>430</ele>
        <time>2020-06-15T14:12:35Z</time>
      </trkpt>
      <trkpt lat="44.54648" lon="2.2736">
        <ele>433</ele>
        <time>2020-06-15T14:12:45Z</time>
      </trkpt>
      <trkpt lat="44.54653" lon="2.27362">
        <ele>433</ele>
        <time>2020-06-15T14:12:46Z</time>
      </trkpt>
      <trkpt lat="44.54687" lon="2.27363">
        <ele>434</ele>
        <time>2020-06-15T14:12:53Z</time>
      </trkpt>
      <trkpt lat="44.54697" lon="2.27363">
        <ele>433</ele>
        <time>2020-06-15T14:12:55Z</time>
      </trkpt>
      <trkpt lat="44.54711" lon="2.27365">
        <ele>432</ele>
        <time>2020-06-15T14:12:58Z</time>
      </trkpt>
      <trkpt lat="44.54716" lon="2.27364">
        <ele>432</ele>
        <time>2020-06-15T14:12:59Z</time>
      </trkpt>
      <trkpt lat="44.54736" lon="2.27365">
        <ele>431</ele>
        <time>2020-06-15T14:13:03Z</time>
      </trkpt>
      <trkpt lat="44.54759" lon="2.27356">
        <ele>431</ele>
        <time>2020-06-15T14:13:08Z</time>
      </trkpt>
      <trkpt lat="44.54764" lon="2.27356">
        <ele>431</ele>
        <time>2020-06-15T14:13:09Z</time>
      </trkpt>
      <trkpt lat="44.54768" lon="2.27362">
        <ele>431</ele>
        <time>2020-06-15T14:13:11Z</time>
      </trkpt>
      <trkpt lat="44.54776" lon="2.27365">
        <ele>432</ele>
        <time>2020-06-15T14:13:13Z</time>
      </trkpt>
      <trkpt lat="44.54791" lon="2.27362">
        <ele>432</ele>
        <time>2020-06-15T14:13:17Z</time>
      </trkpt>
      <trkpt lat="44.54817" lon="2.27339">
        <ele>431</ele>
        <time>2020-06-15T14:13:23Z</time>
      </trkpt>
      <trkpt lat="44.54848" lon="2.27309">
        <ele>429</ele>
        <time>2020-06-15T14:13:31Z</time>
      </trkpt>
      <trkpt lat="44.5486" lon="2.27305">
        <ele>427</ele>
        <time>2020-06-15T14:13:33Z</time>
      </trkpt>
      <trkpt lat="44.54866" lon="2.27306">
        <ele>425</ele>
        <time>2020-06-15T14:13:35Z</time>
      </trkpt>
      <trkpt lat="44.5487" lon="2.2731">
        <ele>425</ele>
        <time>2020-06-15T14:13:37Z</time>
      </trkpt>
      <trkpt lat="44.54876" lon="2.2731">
        <ele>426</ele>
        <time>2020-06-15T14:13:39Z</time>
      </trkpt>
      <trkpt lat="44.54883" lon="2.27317">
        <ele>428</ele>
        <time>2020-06-15T14:13:42Z</time>
      </trkpt>
      <trkpt lat="44.54891" lon="2.27321">
        <ele>428</ele>
        <time>2020-06-15T14:13:44Z</time>
      </trkpt>
      <trkpt lat="44.54895" lon="2.27328">
        <ele>428</ele>
        <time>2020-06-15T14:13:46Z</time>
      </trkpt>
      <trkpt lat="44.54892" lon="2.27336">
        <ele>429</ele>
        <time>2020-06-15T14:13:48Z</time>
      </trkpt>
      <trkpt lat="44.54878" lon="2.27385">
        <ele>427</ele>
        <time>2020-06-15T14:13:57Z</time>
      </trkpt>
      <trkpt lat="44.54873" lon="2.27407">
        <ele>426</ele>
        <time>2020-06-15T14:14:01Z</time>
      </trkpt>
      <trkpt lat="44.54869" lon="2.27424">
        <ele>426</ele>
        <time>2020-06-15T14:14:04Z</time>
      </trkpt>
      <trkpt lat="44.54874" lon="2.27447">
        <ele>427</ele>
        <time>2020-06-15T14:14:08Z</time>
      </trkpt>
      <trkpt lat="44.54877" lon="2.27459">
        <ele>426</ele>
        <time>2020-06-15T14:14:10Z</time>
      </trkpt>
      <trkpt lat="44.54877" lon="2.2747">
        <ele>426</ele>
        <time>2020-06-15T14:14:12Z</time>
      </trkpt>
      <trkpt lat="44.54872" lon="2.27498">
        <ele>428</ele>
        <time>2020-06-15T14:14:17Z</time>
      </trkpt>
      <trkpt lat="44.54865" lon="2.27511">
        <ele>428</ele>
        <time>2020-06-15T14:14:20Z</time>
      </trkpt>
      <trkpt lat="44.54847" lon="2.27531">
        <ele>429</ele>
        <time>2020-06-15T14:14:24Z</time>
      </trkpt>
      <trkpt lat="44.54834" lon="2.27542">
        <ele>431</ele>
        <time>2020-06-15T14:14:27Z</time>
      </trkpt>
      <trkpt lat="44.54822" lon="2.27555">
        <ele>432</ele>
        <time>2020-06-15T14:14:30Z</time>
      </trkpt>
      <trkpt lat="44.54818" lon="2.27558">
        <ele>432</ele>
        <time>2020-06-15T14:14:31Z</time>
      </trkpt>
      <trkpt lat="44.54812" lon="2.27566">
        <ele>432</ele>
        <time>2020-06-15T14:14:33Z</time>
      </trkpt>
      <trkpt lat="44.54802" lon="2.27573">
        <ele>435</ele>
        <time>2020-06-15T14:14:35Z</time>
      </trkpt>
      <trkpt lat="44.54798" lon="2.27575">
        <ele>436</ele>
        <time>2020-06-15T14:14:36Z</time>
      </trkpt>
      <trkpt lat="44.5479" lon="2.27582">
        <ele>437</ele>
        <time>2020-06-15T14:14:38Z</time>
      </trkpt>
      <trkpt lat="44.54759" lon="2.27627">
        <ele>436</ele>
        <time>2020-06-15T14:14:47Z</time>
      </trkpt>
      <trkpt lat="44.54754" lon="2.27631">
        <ele>436</ele>
        <time>2020-06-15T14:14:48Z</time>
      </trkpt>
      <trkpt lat="44.54693" lon="2.27722">
        <ele>433</ele>
        <time>2020-06-15T14:15:07Z</time>
      </trkpt>
      <trkpt lat="44.5469" lon="2.27729">
        <ele>433</ele>
        <time>2020-06-15T14:15:08Z</time>
      </trkpt>
      <trkpt lat="44.54683" lon="2.2774">
        <ele>434</ele>
        <time>2020-06-15T14:15:10Z</time>
      </trkpt>
      <trkpt lat="44.54677" lon="2.27753">
        <ele>434</ele>
        <time>2020-06-15T14:15:12Z</time>
      </trkpt>
      <trkpt lat="44.54669" lon="2.27772">
        <ele>435</ele>
        <time>2020-06-15T14:15:15Z</time>
      </trkpt>
      <trkpt lat="44.54635" lon="2.27837">
        <ele>435</ele>
        <time>2020-06-15T14:15:26Z</time>
      </trkpt>
      <trkpt lat="44.54631" lon="2.27839">
        <ele>435</ele>
        <time>2020-06-15T14:15:27Z</time>
      </trkpt>
      <trkpt lat="44.5463" lon="2.27848">
        <ele>433</ele>
        <time>2020-06-15T14:15:28Z</time>
      </trkpt>
      <trkpt lat="44.5462" lon="2.27863">
        <ele>435</ele>
        <time>2020-06-15T14:15:31Z</time>
      </trkpt>
      <trkpt lat="44.54597" lon="2.27919">
        <ele>439</ele>
        <time>2020-06-15T14:15:40Z</time>
      </trkpt>
      <trkpt lat="44.54584" lon="2.27938">
        <ele>439</ele>
        <time>2020-06-15T14:15:43Z</time>
      </trkpt>
      <trkpt lat="44.54579" lon="2.27954">
        <ele>439</ele>
        <time>2020-06-15T14:15:46Z</time>
      </trkpt>
      <trkpt lat="44.54574" lon="2.27958">
        <ele>439</ele>
        <time>2020-06-15T14:15:47Z</time>
      </trkpt>
      <trkpt lat="44.54563" lon="2.27963">
        <ele>441</ele>
        <time>2020-06-15T14:15:50Z</time>
      </trkpt>
      <trkpt lat="44.54562" lon="2.27966">
        <ele>420</ele>
        <time>2020-06-15T14:16:01Z</time>
      </trkpt>
      <trkpt lat="44.54568" lon="2.27969">
        <ele>422</ele>
        <time>2020-06-15T14:16:03Z</time>
      </trkpt>
      <trkpt lat="44.54576" lon="2.27966">
        <ele>430</ele>
        <time>2020-06-15T14:16:05Z</time>
      </trkpt>
      <trkpt lat="44.54583" lon="2.27959">
        <ele>433</ele>
        <time>2020-06-15T14:16:07Z</time>
      </trkpt>
      <trkpt lat="44.54589" lon="2.27953">
        <ele>389</ele>
        <time>2020-06-15T14:16:09Z</time>
      </trkpt>
      <trkpt lat="44.54596" lon="2.27951">
        <ele>394</ele>
        <time>2020-06-15T14:16:11Z</time>
      </trkpt>
      <trkpt lat="44.546" lon="2.27957">
        <ele>410</ele>
        <time>2020-06-15T14:16:13Z</time>
      </trkpt>
      <trkpt lat="44.54608" lon="2.27968">
        <ele>421</ele>
        <time>2020-06-15T14:16:15Z</time>
      </trkpt>
      <trkpt lat="44.54612" lon="2.27971">
        <ele>424</ele>
        <time>2020-06-15T14:16:16Z</time>
      </trkpt>
      <trkpt lat="44.54633" lon="2.2796">
        <ele>430</ele>
        <time>2020-06-15T14:16:20Z</time>
      </trkpt>
      <trkpt lat="44.54654" lon="2.27956">
        <ele>432</ele>
        <time>2020-06-15T14:16:24Z</time>
      </trkpt>
      <trkpt lat="44.54682" lon="2.27943">
        <ele>429</ele>
        <time>2020-06-15T14:16:30Z</time>
      </trkpt>
      <trkpt lat="44.54698" lon="2.27928">
        <ele>428</ele>
        <time>2020-06-15T14:16:34Z</time>
      </trkpt>
      <trkpt lat="44.54701" lon="2.27932">
        <ele>426</ele>
        <time>2020-06-15T14:16:37Z</time>
      </trkpt>
      <trkpt lat="44.547" lon="2.27941">
        <ele>425</ele>
        <time>2020-06-15T14:16:39Z</time>
      </trkpt>
      <trkpt lat="44.54703" lon="2.27954">
        <ele>424</ele>
        <time>2020-06-15T14:16:41Z</time>
      </trkpt>
      <trkpt lat="44.54702" lon="2.27971">
        <ele>423</ele>
        <time>2020-06-15T14:16:43Z</time>
      </trkpt>
      <trkpt lat="44.54701" lon="2.27984">
        <ele>421</ele>
        <time>2020-06-15T14:16:45Z</time>
      </trkpt>
      <trkpt lat="44.54699" lon="2.28001">
        <ele>418</ele>
        <time>2020-06-15T14:16:47Z</time>
      </trkpt>
      <trkpt lat="44.54695" lon="2.28008">
        <ele>415</ele>
        <time>2020-06-15T14:16:48Z</time>
      </trkpt>
      <trkpt lat="44.54696" lon="2.28019">
        <ele>414</ele>
        <time>2020-06-15T14:16:50Z</time>
      </trkpt>
      <trkpt lat="44.54703" lon="2.28024">
        <ele>411</ele>
        <time>2020-06-15T14:16:52Z</time>
      </trkpt>
      <trkpt lat="44.54711" lon="2.28024">
        <ele>409</ele>
        <time>2020-06-15T14:16:54Z</time>
      </trkpt>
      <trkpt lat="44.54715" lon="2.28013">
        <ele>408</ele>
        <time>2020-06-15T14:16:56Z</time>
      </trkpt>
      <trkpt lat="44.54729" lon="2.27987">
        <ele>405</ele>
        <time>2020-06-15T14:17:01Z</time>
      </trkpt>
      <trkpt lat="44.54739" lon="2.27979">
        <ele>403</ele>
        <time>2020-06-15T14:17:04Z</time>
      </trkpt>
      <trkpt lat="44.54745" lon="2.27972">
        <ele>402</ele>
        <time>2020-06-15T14:17:05Z</time>
      </trkpt>
      <trkpt lat="44.5475" lon="2.27968">
        <ele>401</ele>
        <time>2020-06-15T14:17:06Z</time>
      </trkpt>
      <trkpt lat="44.54757" lon="2.27964">
        <ele>401</ele>
        <time>2020-06-15T14:17:08Z</time>
      </trkpt>
      <trkpt lat="44.54779" lon="2.27946">
        <ele>400</ele>
        <time>2020-06-15T14:17:13Z</time>
      </trkpt>
      <trkpt lat="44.54799" lon="2.27942">
        <ele>399</ele>
        <time>2020-06-15T14:17:16Z</time>
      </trkpt>
      <trkpt lat="44.5481" lon="2.27941">
        <ele>397</ele>
        <time>2020-06-15T14:17:18Z</time>
      </trkpt>
      <trkpt lat="44.54816" lon="2.27936">
        <ele>404</ele>
        <time>2020-06-15T14:17:20Z</time>
      </trkpt>
      <trkpt lat="44.54823" lon="2.27925">
        <ele>402</ele>
        <time>2020-06-15T14:17:21Z</time>
      </trkpt>
      <trkpt lat="44.54844" lon="2.27902">
        <ele>390</ele>
        <time>2020-06-15T14:17:25Z</time>
      </trkpt>
      <trkpt lat="44.54855" lon="2.27905">
        <ele>388</ele>
        <time>2020-06-15T14:17:28Z</time>
      </trkpt>
      <trkpt lat="44.54859" lon="2.27915">
        <ele>384</ele>
        <time>2020-06-15T14:17:29Z</time>
      </trkpt>
      <trkpt lat="44.54862" lon="2.27923">
        <ele>382</ele>
        <time>2020-06-15T14:17:30Z</time>
      </trkpt>
      <trkpt lat="44.54872" lon="2.27942">
        <ele>376</ele>
        <time>2020-06-15T14:17:34Z</time>
      </trkpt>
      <trkpt lat="44.54875" lon="2.27937">
        <ele>372</ele>
        <time>2020-06-15T14:17:44Z</time>
      </trkpt>
      <trkpt lat="44.54881" lon="2.27938">
        <ele>368</ele>
        <time>2020-06-15T14:17:47Z</time>
      </trkpt>
      <trkpt lat="44.54886" lon="2.27937">
        <ele>365</ele>
        <time>2020-06-15T14:17:49Z</time>
      </trkpt>
      <trkpt lat="44.54885" lon="2.27932">
        <ele>365</ele>
        <time>2020-06-15T14:18:08Z</time>
      </trkpt>
      <trkpt lat="44.54877" lon="2.27928">
        <ele>358</ele>
        <time>2020-06-15T14:18:34Z</time>
      </trkpt>
      <trkpt lat="44.54873" lon="2.27937">
        <ele>355</ele>
        <time>2020-06-15T14:18:38Z</time>
      </trkpt>
      <trkpt lat="44.54875" lon="2.27947">
        <ele>352</ele>
        <time>2020-06-15T14:18:40Z</time>
      </trkpt>
      <trkpt lat="44.54889" lon="2.27965">
        <ele>349</ele>
        <time>2020-06-15T14:18:44Z</time>
      </trkpt>
      <trkpt lat="44.54891" lon="2.27973">
        <ele>347</ele>
        <time>2020-06-15T14:18:46Z</time>
      </trkpt>
      <trkpt lat="44.54892" lon="2.27982">
        <ele>346</ele>
        <time>2020-06-15T14:18:48Z</time>
      </trkpt>
      <trkpt lat="44.54887" lon="2.2799">
        <ele>344</ele>
        <time>2020-06-15T14:18:50Z</time>
      </trkpt>
      <trkpt lat="44.54882" lon="2.27999">
        <ele>344</ele>
        <time>2020-06-15T14:18:52Z</time>
      </trkpt>
      <trkpt lat="44.54883" lon="2.28013">
        <ele>343</ele>
        <time>2020-06-15T14:18:54Z</time>
      </trkpt>
      <trkpt lat="44.5489" lon="2.28021">
        <ele>342</ele>
        <time>2020-06-15T14:18:56Z</time>
      </trkpt>
      <trkpt lat="44.54896" lon="2.2802">
        <ele>340</ele>
        <time>2020-06-15T14:18:58Z</time>
      </trkpt>
      <trkpt lat="44.54903" lon="2.28016">
        <ele>339</ele>
        <time>2020-06-15T14:19:00Z</time>
      </trkpt>
      <trkpt lat="44.54913" lon="2.28012">
        <ele>339</ele>
        <time>2020-06-15T14:19:02Z</time>
      </trkpt>
      <trkpt lat="44.54944" lon="2.27945">
        <ele>338</ele>
        <time>2020-06-15T14:19:12Z</time>
      </trkpt>
      <trkpt lat="44.54951" lon="2.27913">
        <ele>336</ele>
        <time>2020-06-15T14:19:15Z</time>
      </trkpt>
      <trkpt lat="44.54959" lon="2.27899">
        <ele>335</ele>
        <time>2020-06-15T14:19:17Z</time>
      </trkpt>
      <trkpt lat="44.54976" lon="2.27922">
        <ele>335</ele>
        <time>2020-06-15T14:19:22Z</time>
      </trkpt>
      <trkpt lat="44.54986" lon="2.27932">
        <ele>335</ele>
        <time>2020-06-15T14:19:24Z</time>
      </trkpt>
      <trkpt lat="44.54992" lon="2.27938">
        <ele>335</ele>
        <time>2020-06-15T14:19:25Z</time>
      </trkpt>
      <trkpt lat="44.55029" lon="2.27956">
        <ele>333</ele>
        <time>2020-06-15T14:19:31Z</time>
      </trkpt>
      <trkpt lat="44.55042" lon="2.27963">
        <ele>333</ele>
        <time>2020-06-15T14:19:33Z</time>
      </trkpt>
      <trkpt lat="44.55058" lon="2.27965">
        <ele>333</ele>
        <time>2020-06-15T14:19:35Z</time>
      </trkpt>
      <trkpt lat="44.551" lon="2.27961">
        <ele>331</ele>
        <time>2020-06-15T14:19:41Z</time>
      </trkpt>
      <trkpt lat="44.55106" lon="2.27953">
        <ele>331</ele>
        <time>2020-06-15T14:19:43Z</time>
      </trkpt>
      <trkpt lat="44.5511" lon="2.2795">
        <ele>331</ele>
        <time>2020-06-15T14:19:46Z</time>
      </trkpt>
      <trkpt lat="44.55116" lon="2.2795">
        <ele>330</ele>
        <time>2020-06-15T14:19:48Z</time>
      </trkpt>
      <trkpt lat="44.55138" lon="2.27941">
        <ele>330</ele>
        <time>2020-06-15T14:19:54Z</time>
      </trkpt>
      <trkpt lat="44.55149" lon="2.2794">
        <ele>330</ele>
        <time>2020-06-15T14:19:56Z</time>
      </trkpt>
      <trkpt lat="44.5516" lon="2.27938">
        <ele>328</ele>
        <time>2020-06-15T14:19:58Z</time>
      </trkpt>
      <trkpt lat="44.55166" lon="2.27937">
        <ele>327</ele>
        <time>2020-06-15T14:19:59Z</time>
      </trkpt>
      <trkpt lat="44.55176" lon="2.27937">
        <ele>348</ele>
        <time>2020-06-15T14:20:01Z</time>
      </trkpt>
      <trkpt lat="44.55184" lon="2.27943">
        <ele>351</ele>
        <time>2020-06-15T14:20:04Z</time>
      </trkpt>
      <trkpt lat="44.55193" lon="2.2794">
        <ele>337</ele>
        <time>2020-06-15T14:20:11Z</time>
      </trkpt>
      <trkpt lat="44.55199" lon="2.27938">
        <ele>329</ele>
        <time>2020-06-15T14:20:16Z</time>
      </trkpt>
      <trkpt lat="44.55204" lon="2.27943">
        <ele>321</ele>
        <time>2020-06-15T14:20:20Z</time>
      </trkpt>
      <trkpt lat="44.55217" lon="2.27947">
        <ele>319</ele>
        <time>2020-06-15T14:20:25Z</time>
      </trkpt>
      <trkpt lat="44.55226" lon="2.27947">
        <ele>319</ele>
        <time>2020-06-15T14:20:28Z</time>
      </trkpt>
      <trkpt lat="44.55235" lon="2.27951">
        <ele>319</ele>
        <time>2020-06-15T14:20:31Z</time>
      </trkpt>
      <trkpt lat="44.55246" lon="2.27957">
        <ele>319</ele>
        <time>2020-06-15T14:20:34Z</time>
      </trkpt>
      <trkpt lat="44.55315" lon="2.2801">
        <ele>325</ele>
        <time>2020-06-15T14:20:55Z</time>
      </trkpt>
      <trkpt lat="44.55322" lon="2.28014">
        <ele>325</ele>
        <time>2020-06-15T14:20:57Z</time>
      </trkpt>
      <trkpt lat="44.5533" lon="2.2802">
        <ele>325</ele>
        <time>2020-06-15T14:20:59Z</time>
      </trkpt>
      <trkpt lat="44.55343" lon="2.28022">
        <ele>324</ele>
        <time>2020-06-15T14:21:01Z</time>
      </trkpt>
      <trkpt lat="44.55351" lon="2.2802">
        <ele>322</ele>
        <time>2020-06-15T14:21:02Z</time>
      </trkpt>
      <trkpt lat="44.55392" lon="2.2799">
        <ele>318</ele>
        <time>2020-06-15T14:21:08Z</time>
      </trkpt>
      <trkpt lat="44.55413" lon="2.27963">
        <ele>313</ele>
        <time>2020-06-15T14:21:12Z</time>
      </trkpt>
      <trkpt lat="44.55426" lon="2.27924">
        <ele>309</ele>
        <time>2020-06-15T14:21:16Z</time>
      </trkpt>
      <trkpt lat="44.55446" lon="2.27904">
        <ele>304</ele>
        <time>2020-06-15T14:21:20Z</time>
      </trkpt>
      <trkpt lat="44.55462" lon="2.2789">
        <ele>300</ele>
        <time>2020-06-15T14:21:23Z</time>
      </trkpt>
      <trkpt lat="44.55483" lon="2.27869">
        <ele>297</ele>
        <time>2020-06-15T14:21:27Z</time>
      </trkpt>
      <trkpt lat="44.55505" lon="2.27834">
        <ele>294</ele>
        <time>2020-06-15T14:21:32Z</time>
      </trkpt>
      <trkpt lat="44.55515" lon="2.27825">
        <ele>292</ele>
        <time>2020-06-15T14:21:34Z</time>
      </trkpt>
      <trkpt lat="44.55521" lon="2.2782">
        <ele>292</ele>
        <time>2020-06-15T14:21:35Z</time>
      </trkpt>
      <trkpt lat="44.55527" lon="2.27815">
        <ele>292</ele>
        <time>2020-06-15T14:21:36Z</time>
      </trkpt>
      <trkpt lat="44.55539" lon="2.27801">
        <ele>291</ele>
        <time>2020-06-15T14:21:38Z</time>
      </trkpt>
      <trkpt lat="44.55546" lon="2.27797">
        <ele>290</ele>
        <time>2020-06-15T14:21:39Z</time>
      </trkpt>
      <trkpt lat="44.55558" lon="2.27787">
        <ele>312</ele>
        <time>2020-06-15T14:21:41Z</time>
      </trkpt>
      <trkpt lat="44.55587" lon="2.27766">
        <ele>292</ele>
        <time>2020-06-15T14:21:45Z</time>
      </trkpt>
      <trkpt lat="44.55593" lon="2.27764">
        <ele>291</ele>
        <time>2020-06-15T14:21:46Z</time>
      </trkpt>
      <trkpt lat="44.55619" lon="2.27752">
        <ele>288</ele>
        <time>2020-06-15T14:21:53Z</time>
      </trkpt>
      <trkpt lat="44.55618" lon="2.27748">
        <ele>288</ele>
        <time>2020-06-15T14:22:01Z</time>
      </trkpt>
      <trkpt lat="44.55601" lon="2.27761">
        <ele>286</ele>
        <time>2020-06-15T14:22:09Z</time>
      </trkpt>
      <trkpt lat="44.55597" lon="2.27761">
        <ele>285</ele>
        <time>2020-06-15T14:22:11Z</time>
      </trkpt>
      <trkpt lat="44.55596" lon="2.27754">
        <ele>285</ele>
        <time>2020-06-15T14:22:13Z</time>
      </trkpt>
      <trkpt lat="44.55611" lon="2.27724">
        <ele>288</ele>
        <time>2020-06-15T14:22:25Z</time>
      </trkpt>
      <trkpt lat="44.55614" lon="2.27707">
        <ele>289</ele>
        <time>2020-06-15T14:22:31Z</time>
      </trkpt>
      <trkpt lat="44.55616" lon="2.27699">
        <ele>289</ele>
        <time>2020-06-15T14:22:34Z</time>
      </trkpt>
      <trkpt lat="44.55617" lon="2.27689">
        <ele>292</ele>
        <time>2020-06-15T14:22:38Z</time>
      </trkpt>
      <trkpt lat="44.5562" lon="2.27684">
        <ele>294</ele>
        <time>2020-06-15T14:22:40Z</time>
      </trkpt>
      <trkpt lat="44.55627" lon="2.27657">
        <ele>296</ele>
        <time>2020-06-15T14:22:52Z</time>
      </trkpt>
      <trkpt lat="44.55632" lon="2.2764">
        <ele>298</ele>
        <time>2020-06-15T14:22:59Z</time>
      </trkpt>
      <trkpt lat="44.5564" lon="2.2762">
        <ele>316</ele>
        <time>2020-06-15T14:23:06Z</time>
      </trkpt>
      <trkpt lat="44.55643" lon="2.27611">
        <ele>315</ele>
        <time>2020-06-15T14:23:09Z</time>
      </trkpt>
      <trkpt lat="44.55642" lon="2.27598">
        <ele>309</ele>
        <time>2020-06-15T14:23:13Z</time>
      </trkpt>
      <trkpt lat="44.55639" lon="2.27576">
        <ele>305</ele>
        <time>2020-06-15T14:23:21Z</time>
      </trkpt>
      <trkpt lat="44.55643" lon="2.27559">
        <ele>307</ele>
        <time>2020-06-15T14:23:27Z</time>
      </trkpt>
      <trkpt lat="44.55645" lon="2.27547">
        <ele>308</ele>
        <time>2020-06-15T14:23:31Z</time>
      </trkpt>
      <trkpt lat="44.55647" lon="2.27532">
        <ele>308</ele>
        <time>2020-06-15T14:23:37Z</time>
      </trkpt>
      <trkpt lat="44.5564" lon="2.27522">
        <ele>306</ele>
        <time>2020-06-15T14:23:43Z</time>
      </trkpt>
      <trkpt lat="44.55633" lon="2.27528">
        <ele>306</ele>
        <time>2020-06-15T14:23:48Z</time>
      </trkpt>
      <trkpt lat="44.55629" lon="2.27537">
        <ele>332</ele>
        <time>2020-06-15T14:23:53Z</time>
      </trkpt>
      <trkpt lat="44.55607" lon="2.27563">
        <ele>317</ele>
        <time>2020-06-15T14:24:16Z</time>
      </trkpt>
      <trkpt lat="44.556" lon="2.27568">
        <ele>348</ele>
        <time>2020-06-15T14:24:23Z</time>
      </trkpt>
      <trkpt lat="44.55591" lon="2.27579">
        <ele>335</ele>
        <time>2020-06-15T14:24:29Z</time>
      </trkpt>
      <trkpt lat="44.55591" lon="2.27568">
        <ele>337</ele>
        <time>2020-06-15T14:24:41Z</time>
      </trkpt>
      <trkpt lat="44.55598" lon="2.27539">
        <ele>349</ele>
        <time>2020-06-15T14:24:49Z</time>
      </trkpt>
      <trkpt lat="44.55611" lon="2.27508">
        <ele>351</ele>
        <time>2020-06-15T14:24:56Z</time>
      </trkpt>
      <trkpt lat="44.55626" lon="2.27435">
        <ele>323</ele>
        <time>2020-06-15T14:25:09Z</time>
      </trkpt>
      <trkpt lat="44.55623" lon="2.27421">
        <ele>321</ele>
        <time>2020-06-15T14:25:12Z</time>
      </trkpt>
      <trkpt lat="44.55619" lon="2.27408">
        <ele>322</ele>
        <time>2020-06-15T14:25:15Z</time>
      </trkpt>
      <trkpt lat="44.55611" lon="2.27343">
        <ele>322</ele>
        <time>2020-06-15T14:25:31Z</time>
      </trkpt>
      <trkpt lat="44.55612" lon="2.27329">
        <ele>325</ele>
        <time>2020-06-15T14:25:35Z</time>
      </trkpt>
      <trkpt lat="44.55612" lon="2.27316">
        <ele>326</ele>
        <time>2020-06-15T14:25:39Z</time>
      </trkpt>
      <trkpt lat="44.55613" lon="2.27301">
        <ele>325</ele>
        <time>2020-06-15T14:25:43Z</time>
      </trkpt>
      <trkpt lat="44.55606" lon="2.27288">
        <ele>323</ele>
        <time>2020-06-15T14:25:46Z</time>
      </trkpt>
      <trkpt lat="44.55606" lon="2.27253">
        <ele>324</ele>
        <time>2020-06-15T14:25:52Z</time>
      </trkpt>
      <trkpt lat="44.5561" lon="2.27246">
        <ele>324</ele>
        <time>2020-06-15T14:25:53Z</time>
      </trkpt>
      <trkpt lat="44.5561" lon="2.27231">
        <ele>325</ele>
        <time>2020-06-15T14:25:55Z</time>
      </trkpt>
      <trkpt lat="44.55605" lon="2.27223">
        <ele>324</ele>
        <time>2020-06-15T14:25:56Z</time>
      </trkpt>
      <trkpt lat="44.55603" lon="2.27216">
        <ele>323</ele>
        <time>2020-06-15T14:25:57Z</time>
      </trkpt>
      <trkpt lat="44.55599" lon="2.27212">
        <ele>323</ele>
        <time>2020-06-15T14:25:58Z</time>
      </trkpt>
      <trkpt lat="44.55582" lon="2.27202">
        <ele>323</ele>
        <time>2020-06-15T14:26:01Z</time>
      </trkpt>
      <trkpt lat="44.55547" lon="2.27195">
        <ele>322</ele>
        <time>2020-06-15T14:26:06Z</time>
      </trkpt>
      <trkpt lat="44.5554" lon="2.27196">
        <ele>322</ele>
        <time>2020-06-15T14:26:07Z</time>
      </trkpt>
      <trkpt lat="44.55517" lon="2.27216">
        <ele>322</ele>
        <time>2020-06-15T14:26:12Z</time>
      </trkpt>
      <trkpt lat="44.55494" lon="2.27256">
        <ele>327</ele>
        <time>2020-06-15T14:26:20Z</time>
      </trkpt>
      <trkpt lat="44.55486" lon="2.2728">
        <ele>327</ele>
        <time>2020-06-15T14:26:26Z</time>
      </trkpt>
      <trkpt lat="44.55477" lon="2.27294">
        <ele>326</ele>
        <time>2020-06-15T14:26:30Z</time>
      </trkpt>
      <trkpt lat="44.5547" lon="2.27301">
        <ele>325</ele>
        <time>2020-06-15T14:26:32Z</time>
      </trkpt>
      <trkpt lat="44.55438" lon="2.27311">
        <ele>328</ele>
        <time>2020-06-15T14:26:38Z</time>
      </trkpt>
      <trkpt lat="44.55408" lon="2.27328">
        <ele>329</ele>
        <time>2020-06-15T14:26:46Z</time>
      </trkpt>
      <trkpt lat="44.554" lon="2.27328">
        <ele>330</ele>
        <time>2020-06-15T14:26:48Z</time>
      </trkpt>
      <trkpt lat="44.55385" lon="2.2734">
        <ele>329</ele>
        <time>2020-06-15T14:26:52Z</time>
      </trkpt>
      <trkpt lat="44.55377" lon="2.27344">
        <ele>327</ele>
        <time>2020-06-15T14:26:55Z</time>
      </trkpt>
      <trkpt lat="44.55363" lon="2.27352">
        <ele>326</ele>
        <time>2020-06-15T14:27:01Z</time>
      </trkpt>
      <trkpt lat="44.55357" lon="2.27356">
        <ele>327</ele>
        <time>2020-06-15T14:27:04Z</time>
      </trkpt>
      <trkpt lat="44.5535" lon="2.27358">
        <ele>331</ele>
        <time>2020-06-15T14:27:08Z</time>
      </trkpt>
      <trkpt lat="44.55345" lon="2.27362">
        <ele>333</ele>
        <time>2020-06-15T14:27:12Z</time>
      </trkpt>
      <trkpt lat="44.5534" lon="2.27367">
        <ele>336</ele>
        <time>2020-06-15T14:27:16Z</time>
      </trkpt>
      <trkpt lat="44.55332" lon="2.27372">
        <ele>338</ele>
        <time>2020-06-15T14:27:23Z</time>
      </trkpt>
      <trkpt lat="44.55326" lon="2.27376">
        <ele>340</ele>
        <time>2020-06-15T14:27:28Z</time>
      </trkpt>
      <trkpt lat="44.55315" lon="2.27376">
        <ele>343</ele>
        <time>2020-06-15T14:27:35Z</time>
      </trkpt>
      <trkpt lat="44.55295" lon="2.27366">
        <ele>351</ele>
        <time>2020-06-15T14:27:46Z</time>
      </trkpt>
      <trkpt lat="44.55291" lon="2.27359">
        <ele>351</ele>
        <time>2020-06-15T14:27:50Z</time>
      </trkpt>
      <trkpt lat="44.5529" lon="2.27349">
        <ele>349</ele>
        <time>2020-06-15T14:27:54Z</time>
      </trkpt>
      <trkpt lat="44.55286" lon="2.27339">
        <ele>347</ele>
        <time>2020-06-15T14:27:59Z</time>
      </trkpt>
      <trkpt lat="44.55295" lon="2.27307">
        <ele>368</ele>
        <time>2020-06-15T14:28:10Z</time>
      </trkpt>
      <trkpt lat="44.55293" lon="2.27279">
        <ele>374</ele>
        <time>2020-06-15T14:28:18Z</time>
      </trkpt>
      <trkpt lat="44.55289" lon="2.27265">
        <ele>373</ele>
        <time>2020-06-15T14:28:21Z</time>
      </trkpt>
      <trkpt lat="44.55277" lon="2.27233">
        <ele>353</ele>
        <time>2020-06-15T14:28:28Z</time>
      </trkpt>
      <trkpt lat="44.55274" lon="2.27218">
        <ele>348</ele>
        <time>2020-06-15T14:28:31Z</time>
      </trkpt>
      <trkpt lat="44.55281" lon="2.27196">
        <ele>361</ele>
        <time>2020-06-15T14:28:34Z</time>
      </trkpt>
      <trkpt lat="44.5529" lon="2.27181">
        <ele>364</ele>
        <time>2020-06-15T14:28:37Z</time>
      </trkpt>
      <trkpt lat="44.55299" lon="2.27169">
        <ele>371</ele>
        <time>2020-06-15T14:28:40Z</time>
      </trkpt>
      <trkpt lat="44.55304" lon="2.27153">
        <ele>372</ele>
        <time>2020-06-15T14:28:43Z</time>
      </trkpt>
      <trkpt lat="44.55314" lon="2.27141">
        <ele>373</ele>
        <time>2020-06-15T14:28:46Z</time>
      </trkpt>
      <trkpt lat="44.55314" lon="2.27119">
        <ele>357</ele>
        <time>2020-06-15T14:28:54Z</time>
      </trkpt>
      <trkpt lat="44.55311" lon="2.27106">
        <ele>352</ele>
        <time>2020-06-15T14:28:58Z</time>
      </trkpt>
      <trkpt lat="44.55301" lon="2.27074">
        <ele>358</ele>
        <time>2020-06-15T14:29:07Z</time>
      </trkpt>
      <trkpt lat="44.55299" lon="2.27063">
        <ele>355</ele>
        <time>2020-06-15T14:29:10Z</time>
      </trkpt>
      <trkpt lat="44.55297" lon="2.27051">
        <ele>353</ele>
        <time>2020-06-15T14:29:13Z</time>
      </trkpt>
      <trkpt lat="44.553" lon="2.27018">
        <ele>351</ele>
        <time>2020-06-15T14:29:20Z</time>
      </trkpt>
      <trkpt lat="44.55298" lon="2.26983">
        <ele>349</ele>
        <time>2020-06-15T14:29:27Z</time>
      </trkpt>
      <trkpt lat="44.55297" lon="2.26974">
        <ele>350</ele>
        <time>2020-06-15T14:29:29Z</time>
      </trkpt>
      <trkpt lat="44.55295" lon="2.26966">
        <ele>350</ele>
        <time>2020-06-15T14:29:32Z</time>
      </trkpt>
      <trkpt lat="44.5529" lon="2.26964">
        <ele>350</ele>
        <time>2020-06-15T14:29:44Z</time>
      </trkpt>
      <trkpt lat="44.55288" lon="2.26889">
        <ele>350</ele>
        <time>2020-06-15T14:30:06Z</time>
      </trkpt>
      <trkpt lat="44.55303" lon="2.26805">
        <ele>349</ele>
        <time>2020-06-15T14:30:14Z</time>
      </trkpt>
      <trkpt lat="44.5531" lon="2.26785">
        <ele>349</ele>
        <time>2020-06-15T14:30:16Z</time>
      </trkpt>
      <trkpt lat="44.5532" lon="2.26735">
        <ele>345</ele>
        <time>2020-06-15T14:30:21Z</time>
      </trkpt>
      <trkpt lat="44.55324" lon="2.26725">
        <ele>344</ele>
        <time>2020-06-15T14:30:22Z</time>
      </trkpt>
      <trkpt lat="44.55325" lon="2.26717">
        <ele>343</ele>
        <time>2020-06-15T14:30:23Z</time>
      </trkpt>
      <trkpt lat="44.55329" lon="2.26704">
        <ele>341</ele>
        <time>2020-06-15T14:30:25Z</time>
      </trkpt>
      <trkpt lat="44.55332" lon="2.26694">
        <ele>339</ele>
        <time>2020-06-15T14:30:27Z</time>
      </trkpt>
      <trkpt lat="44.55332" lon="2.26686">
        <ele>339</ele>
        <time>2020-06-15T14:30:28Z</time>
      </trkpt>
      <trkpt lat="44.55331" lon="2.26677">
        <ele>337</ele>
        <time>2020-06-15T14:30:29Z</time>
      </trkpt>
      <trkpt lat="44.55312" lon="2.26626">
        <ele>335</ele>
        <time>2020-06-15T14:30:35Z</time>
      </trkpt>
      <trkpt lat="44.55311" lon="2.26619">
        <ele>335</ele>
        <time>2020-06-15T14:30:36Z</time>
      </trkpt>
      <trkpt lat="44.55364" lon="2.26474">
        <ele>317</ele>
        <time>2020-06-15T14:30:52Z</time>
      </trkpt>
      <trkpt lat="44.55365" lon="2.26443">
        <ele>314</ele>
        <time>2020-06-15T14:30:56Z</time>
      </trkpt>
      <trkpt lat="44.55368" lon="2.26435">
        <ele>312</ele>
        <time>2020-06-15T14:30:57Z</time>
      </trkpt>
      <trkpt lat="44.55383" lon="2.26419">
        <ele>308</ele>
        <time>2020-06-15T14:31:00Z</time>
      </trkpt>
      <trkpt lat="44.55387" lon="2.26413">
        <ele>307</ele>
        <time>2020-06-15T14:31:01Z</time>
      </trkpt>
      <trkpt lat="44.55388" lon="2.26406">
        <ele>306</ele>
        <time>2020-06-15T14:31:02Z</time>
      </trkpt>
      <trkpt lat="44.55387" lon="2.264">
        <ele>304</ele>
        <time>2020-06-15T14:31:03Z</time>
      </trkpt>
      <trkpt lat="44.55385" lon="2.26394">
        <ele>303</ele>
        <time>2020-06-15T14:31:04Z</time>
      </trkpt>
      <trkpt lat="44.55381" lon="2.26388">
        <ele>301</ele>
        <time>2020-06-15T14:31:05Z</time>
      </trkpt>
      <trkpt lat="44.55367" lon="2.26378">
        <ele>299</ele>
        <time>2020-06-15T14:31:08Z</time>
      </trkpt>
      <trkpt lat="44.5536" lon="2.26387">
        <ele>297</ele>
        <time>2020-06-15T14:31:10Z</time>
      </trkpt>
      <trkpt lat="44.55353" lon="2.26397">
        <ele>297</ele>
        <time>2020-06-15T14:31:12Z</time>
      </trkpt>
      <trkpt lat="44.55348" lon="2.26394">
        <ele>296</ele>
        <time>2020-06-15T14:31:14Z</time>
      </trkpt>
      <trkpt lat="44.55354" lon="2.26375">
        <ele>296</ele>
        <time>2020-06-15T14:31:18Z</time>
      </trkpt>
      <trkpt lat="44.55359" lon="2.26361">
        <ele>295</ele>
        <time>2020-06-15T14:31:20Z</time>
      </trkpt>
      <trkpt lat="44.55363" lon="2.26353">
        <ele>295</ele>
        <time>2020-06-15T14:31:21Z</time>
      </trkpt>
      <trkpt lat="44.55435" lon="2.26308">
        <ele>285</ele>
        <time>2020-06-15T14:31:31Z</time>
      </trkpt>
      <trkpt lat="44.55438" lon="2.26302">
        <ele>285</ele>
        <time>2020-06-15T14:31:32Z</time>
      </trkpt>
      <trkpt lat="44.55441" lon="2.26294">
        <ele>285</ele>
        <time>2020-06-15T14:31:34Z</time>
      </trkpt>
      <trkpt lat="44.5544" lon="2.26285">
        <ele>284</ele>
        <time>2020-06-15T14:31:37Z</time>
      </trkpt>
      <trkpt lat="44.55416" lon="2.26287">
        <ele>282</ele>
        <time>2020-06-15T14:31:43Z</time>
      </trkpt>
      <trkpt lat="44.55298" lon="2.26346">
        <ele>279</ele>
        <time>2020-06-15T14:32:09Z</time>
      </trkpt>
      <trkpt lat="44.5529" lon="2.26352">
        <ele>279</ele>
        <time>2020-06-15T14:32:11Z</time>
      </trkpt>
      <trkpt lat="44.55285" lon="2.26354">
        <ele>279</ele>
        <time>2020-06-15T14:32:12Z</time>
      </trkpt>
      <trkpt lat="44.55274" lon="2.26365">
        <ele>278</ele>
        <time>2020-06-15T14:32:15Z</time>
      </trkpt>
      <trkpt lat="44.55269" lon="2.26366">
        <ele>279</ele>
        <time>2020-06-15T14:32:16Z</time>
      </trkpt>
      <trkpt lat="44.55265" lon="2.26363">
        <ele>279</ele>
        <time>2020-06-15T14:32:17Z</time>
      </trkpt>
      <trkpt lat="44.55261" lon="2.26358">
        <ele>280</ele>
        <time>2020-06-15T14:32:18Z</time>
      </trkpt>
      <trkpt lat="44.55253" lon="2.26359">
        <ele>280</ele>
        <time>2020-06-15T14:32:20Z</time>
      </trkpt>
      <trkpt lat="44.55246" lon="2.26361">
        <ele>278</ele>
        <time>2020-06-15T14:32:22Z</time>
      </trkpt>
      <trkpt lat="44.55234" lon="2.26364">
        <ele>279</ele>
        <time>2020-06-15T14:32:25Z</time>
      </trkpt>
      <trkpt lat="44.5521" lon="2.26349">
        <ele>279</ele>
        <time>2020-06-15T14:32:32Z</time>
      </trkpt>
      <trkpt lat="44.55204" lon="2.26343">
        <ele>280</ele>
        <time>2020-06-15T14:32:34Z</time>
      </trkpt>
      <trkpt lat="44.552" lon="2.26335">
        <ele>279</ele>
        <time>2020-06-15T14:32:36Z</time>
      </trkpt>
      <trkpt lat="44.552" lon="2.26326">
        <ele>279</ele>
        <time>2020-06-15T14:32:38Z</time>
      </trkpt>
      <trkpt lat="44.55225" lon="2.26272">
        <ele>277</ele>
        <time>2020-06-15T14:32:50Z</time>
      </trkpt>
      <trkpt lat="44.55239" lon="2.26214">
        <ele>280</ele>
        <time>2020-06-15T14:33:00Z</time>
      </trkpt>
      <trkpt lat="44.55244" lon="2.26174">
        <ele>279</ele>
        <time>2020-06-15T14:33:05Z</time>
      </trkpt>
      <trkpt lat="44.55239" lon="2.26114">
        <ele>272</ele>
        <time>2020-06-15T14:33:10Z</time>
      </trkpt>
      <trkpt lat="44.55215" lon="2.25989">
        <ele>263</ele>
        <time>2020-06-15T14:33:19Z</time>
      </trkpt>
      <trkpt lat="44.55211" lon="2.25908">
        <ele>264</ele>
        <time>2020-06-15T14:33:26Z</time>
      </trkpt>
      <trkpt lat="44.55206" lon="2.25884">
        <ele>264</ele>
        <time>2020-06-15T14:33:29Z</time>
      </trkpt>
      <trkpt lat="44.55198" lon="2.25869">
        <ele>263</ele>
        <time>2020-06-15T14:33:32Z</time>
      </trkpt>
      <trkpt lat="44.55183" lon="2.25855">
        <ele>261</ele>
        <time>2020-06-15T14:33:36Z</time>
      </trkpt>
      <trkpt lat="44.5517" lon="2.2585">
        <ele>262</ele>
        <time>2020-06-15T14:33:40Z</time>
      </trkpt>
      <trkpt lat="44.55086" lon="2.25847">
        <ele>274</ele>
        <time>2020-06-15T14:34:10Z</time>
      </trkpt>
      <trkpt lat="44.55008" lon="2.25847">
        <ele>280</ele>
        <time>2020-06-15T14:34:40Z</time>
      </trkpt>
      <trkpt lat="44.54978" lon="2.25851">
        <ele>283</ele>
        <time>2020-06-15T14:34:54Z</time>
      </trkpt>
      <trkpt lat="44.54904" lon="2.25874">
        <ele>289</ele>
        <time>2020-06-15T14:35:24Z</time>
      </trkpt>
      <trkpt lat="44.54869" lon="2.25885">
        <ele>293</ele>
        <time>2020-06-15T14:35:38Z</time>
      </trkpt>
      <trkpt lat="44.54855" lon="2.25888">
        <ele>294</ele>
        <time>2020-06-15T14:35:44Z</time>
      </trkpt>
      <trkpt lat="44.5485" lon="2.25887">
        <ele>296</ele>
        <time>2020-06-15T14:35:46Z</time>
      </trkpt>
      <trkpt lat="44.54774" lon="2.25897">
        <ele>302</ele>
        <time>2020-06-15T14:36:16Z</time>
      </trkpt>
      <trkpt lat="44.54728" lon="2.259">
        <ele>304</ele>
        <time>2020-06-15T14:36:34Z</time>
      </trkpt>
      <trkpt lat="44.54656" lon="2.25894">
        <ele>312</ele>
        <time>2020-06-15T14:37:04Z</time>
      </trkpt>
      <trkpt lat="44.54651" lon="2.25893">
        <ele>313</ele>
        <time>2020-06-15T14:37:06Z</time>
      </trkpt>
      <trkpt lat="44.54637" lon="2.25888">
        <ele>315</ele>
        <time>2020-06-15T14:37:12Z</time>
      </trkpt>
      <trkpt lat="44.54633" lon="2.25887">
        <ele>315</ele>
        <time>2020-06-15T14:37:14Z</time>
      </trkpt>
      <trkpt lat="44.54623" lon="2.2589">
        <ele>315</ele>
        <time>2020-06-15T14:37:18Z</time>
      </trkpt>
      <trkpt lat="44.54614" lon="2.25898">
        <ele>316</ele>
        <time>2020-06-15T14:37:22Z</time>
      </trkpt>
      <trkpt lat="44.54607" lon="2.25909">
        <ele>316</ele>
        <time>2020-06-15T14:37:26Z</time>
      </trkpt>
      <trkpt lat="44.54603" lon="2.25916">
        <ele>315</ele>
        <time>2020-06-15T14:37:28Z</time>
      </trkpt>
      <trkpt lat="44.54602" lon="2.25924">
        <ele>314</ele>
        <time>2020-06-15T14:37:30Z</time>
      </trkpt>
      <trkpt lat="44.54604" lon="2.25954">
        <ele>314</ele>
        <time>2020-06-15T14:37:38Z</time>
      </trkpt>
      <trkpt lat="44.54604" lon="2.25965">
        <ele>314</ele>
        <time>2020-06-15T14:37:41Z</time>
      </trkpt>
      <trkpt lat="44.54605" lon="2.2608">
        <ele>319</ele>
        <time>2020-06-15T14:38:12Z</time>
      </trkpt>
      <trkpt lat="44.5462" lon="2.26196">
        <ele>326</ele>
        <time>2020-06-15T14:38:44Z</time>
      </trkpt>
      <trkpt lat="44.54615" lon="2.2631">
        <ele>335</ele>
        <time>2020-06-15T14:39:15Z</time>
      </trkpt>
      <trkpt lat="44.54619" lon="2.26416">
        <ele>340</ele>
        <time>2020-06-15T14:39:45Z</time>
      </trkpt>
      <trkpt lat="44.54632" lon="2.26523">
        <ele>348</ele>
        <time>2020-06-15T14:40:15Z</time>
      </trkpt>
      <trkpt lat="44.54654" lon="2.26628">
        <ele>353</ele>
        <time>2020-06-15T14:40:45Z</time>
      </trkpt>
      <trkpt lat="44.54659" lon="2.26649">
        <ele>355</ele>
        <time>2020-06-15T14:40:51Z</time>
      </trkpt>
      <trkpt lat="44.54667" lon="2.26669">
        <ele>357</ele>
        <time>2020-06-15T14:40:57Z</time>
      </trkpt>
      <trkpt lat="44.54684" lon="2.26715">
        <ele>358</ele>
        <time>2020-06-15T14:41:11Z</time>
      </trkpt>
      <trkpt lat="44.54685" lon="2.26722">
        <ele>359</ele>
        <time>2020-06-15T14:41:13Z</time>
      </trkpt>
      <trkpt lat="44.54684" lon="2.2673">
        <ele>359</ele>
        <time>2020-06-15T14:41:15Z</time>
      </trkpt>
      <trkpt lat="44.54681" lon="2.26738">
        <ele>360</ele>
        <time>2020-06-15T14:41:17Z</time>
      </trkpt>
      <trkpt lat="44.54677" lon="2.26744">
        <ele>360</ele>
        <time>2020-06-15T14:41:19Z</time>
      </trkpt>
      <trkpt lat="44.54656" lon="2.26756">
        <ele>363</ele>
        <time>2020-06-15T14:41:27Z</time>
      </trkpt>
      <trkpt lat="44.54647" lon="2.2676">
        <ele>363</ele>
        <time>2020-06-15T14:41:31Z</time>
      </trkpt>
      <trkpt lat="44.54626" lon="2.26757">
        <ele>362</ele>
        <time>2020-06-15T14:41:39Z</time>
      </trkpt>
      <trkpt lat="44.54549" lon="2.26724">
        <ele>370</ele>
        <time>2020-06-15T14:42:09Z</time>
      </trkpt>
      <trkpt lat="44.54475" lon="2.26692">
        <ele>378</ele>
        <time>2020-06-15T14:42:39Z</time>
      </trkpt>
      <trkpt lat="44.54387" lon="2.26662">
        <ele>381</ele>
        <time>2020-06-15T14:43:09Z</time>
      </trkpt>
      <trkpt lat="44.54316" lon="2.26649">
        <ele>380</ele>
        <time>2020-06-15T14:43:31Z</time>
      </trkpt>
      <trkpt lat="44.54311" lon="2.26644">
        <ele>381</ele>
        <time>2020-06-15T14:43:33Z</time>
      </trkpt>
      <trkpt lat="44.5431" lon="2.26636">
        <ele>383</ele>
        <time>2020-06-15T14:43:35Z</time>
      </trkpt>
      <trkpt lat="44.5431" lon="2.26627">
        <ele>384</ele>
        <time>2020-06-15T14:43:37Z</time>
      </trkpt>
      <trkpt lat="44.54284" lon="2.26594">
        <ele>384</ele>
        <time>2020-06-15T14:43:47Z</time>
      </trkpt>
      <trkpt lat="44.5425" lon="2.26489">
        <ele>379</ele>
        <time>2020-06-15T14:44:08Z</time>
      </trkpt>
      <trkpt lat="44.54242" lon="2.26442">
        <ele>376</ele>
        <time>2020-06-15T14:44:14Z</time>
      </trkpt>
      <trkpt lat="44.54243" lon="2.26401">
        <ele>376</ele>
        <time>2020-06-15T14:44:18Z</time>
      </trkpt>
      <trkpt lat="44.54252" lon="2.26367">
        <ele>374</ele>
        <time>2020-06-15T14:44:21Z</time>
      </trkpt>
      <trkpt lat="44.54255" lon="2.26281">
        <ele>369</ele>
        <time>2020-06-15T14:44:28Z</time>
      </trkpt>
      <trkpt lat="44.54242" lon="2.2622">
        <ele>364</ele>
        <time>2020-06-15T14:44:33Z</time>
      </trkpt>
      <trkpt lat="44.5423" lon="2.26196">
        <ele>362</ele>
        <time>2020-06-15T14:44:36Z</time>
      </trkpt>
      <trkpt lat="44.54231" lon="2.26196">
        <ele>361</ele>
        <time>2020-06-15T14:44:43Z</time>
      </trkpt>
      <trkpt lat="44.54234" lon="2.26203">
        <ele>361</ele>
        <time>2020-06-15T14:44:45Z</time>
      </trkpt>
      <trkpt lat="44.54232" lon="2.26293">
        <ele>353</ele>
        <time>2020-06-15T14:44:59Z</time>
      </trkpt>
      <trkpt lat="44.54224" lon="2.26331">
        <ele>351</ele>
        <time>2020-06-15T14:45:03Z</time>
      </trkpt>
      <trkpt lat="44.54178" lon="2.26443">
        <ele>345</ele>
        <time>2020-06-15T14:45:17Z</time>
      </trkpt>
      <trkpt lat="44.5415" lon="2.26486">
        <ele>341</ele>
        <time>2020-06-15T14:45:24Z</time>
      </trkpt>
      <trkpt lat="44.54108" lon="2.26578">
        <ele>333</ele>
        <time>2020-06-15T14:45:35Z</time>
      </trkpt>
      <trkpt lat="44.54103" lon="2.26585">
        <ele>332</ele>
        <time>2020-06-15T14:45:36Z</time>
      </trkpt>
      <trkpt lat="44.54098" lon="2.26588">
        <ele>331</ele>
        <time>2020-06-15T14:45:37Z</time>
      </trkpt>
      <trkpt lat="44.54092" lon="2.26589">
        <ele>331</ele>
        <time>2020-06-15T14:45:38Z</time>
      </trkpt>
      <trkpt lat="44.54087" lon="2.26586">
        <ele>331</ele>
        <time>2020-06-15T14:45:39Z</time>
      </trkpt>
      <trkpt lat="44.54083" lon="2.2658">
        <ele>330</ele>
        <time>2020-06-15T14:45:40Z</time>
      </trkpt>
      <trkpt lat="44.54081" lon="2.26565">
        <ele>330</ele>
        <time>2020-06-15T14:45:42Z</time>
      </trkpt>
      <trkpt lat="44.54084" lon="2.26528">
        <ele>331</ele>
        <time>2020-06-15T14:45:47Z</time>
      </trkpt>
      <trkpt lat="44.54097" lon="2.26486">
        <ele>332</ele>
        <time>2020-06-15T14:45:57Z</time>
      </trkpt>
      <trkpt lat="44.541" lon="2.26481">
        <ele>331</ele>
        <time>2020-06-15T14:45:59Z</time>
      </trkpt>
      <trkpt lat="44.54105" lon="2.26476">
        <ele>330</ele>
        <time>2020-06-15T14:46:02Z</time>
      </trkpt>
      <trkpt lat="44.54108" lon="2.2647">
        <ele>330</ele>
        <time>2020-06-15T14:46:04Z</time>
      </trkpt>
      <trkpt lat="44.54104" lon="2.26468">
        <ele>331</ele>
        <time>2020-06-15T14:46:06Z</time>
      </trkpt>
      <trkpt lat="44.54025" lon="2.2646">
        <ele>323</ele>
        <time>2020-06-15T14:46:25Z</time>
      </trkpt>
      <trkpt lat="44.54013" lon="2.26474">
        <ele>323</ele>
        <time>2020-06-15T14:46:32Z</time>
      </trkpt>
      <trkpt lat="44.5401" lon="2.2648">
        <ele>320</ele>
        <time>2020-06-15T14:46:34Z</time>
      </trkpt>
      <trkpt lat="44.54006" lon="2.26484">
        <ele>320</ele>
        <time>2020-06-15T14:46:36Z</time>
      </trkpt>
      <trkpt lat="44.54001" lon="2.26483">
        <ele>319</ele>
        <time>2020-06-15T14:46:38Z</time>
      </trkpt>
      <trkpt lat="44.53996" lon="2.26475">
        <ele>317</ele>
        <time>2020-06-15T14:46:40Z</time>
      </trkpt>
      <trkpt lat="44.53995" lon="2.26466">
        <ele>316</ele>
        <time>2020-06-15T14:46:42Z</time>
      </trkpt>
      <trkpt lat="44.53998" lon="2.2645">
        <ele>313</ele>
        <time>2020-06-15T14:46:46Z</time>
      </trkpt>
      <trkpt lat="44.53997" lon="2.26442">
        <ele>312</ele>
        <time>2020-06-15T14:46:49Z</time>
      </trkpt>
      <trkpt lat="44.53985" lon="2.26431">
        <ele>311</ele>
        <time>2020-06-15T14:46:52Z</time>
      </trkpt>
      <trkpt lat="44.53979" lon="2.26417">
        <ele>310</ele>
        <time>2020-06-15T14:46:54Z</time>
      </trkpt>
      <trkpt lat="44.5397" lon="2.26404">
        <ele>309</ele>
        <time>2020-06-15T14:46:56Z</time>
      </trkpt>
      <trkpt lat="44.5396" lon="2.2639">
        <ele>305</ele>
        <time>2020-06-15T14:46:58Z</time>
      </trkpt>
      <trkpt lat="44.53953" lon="2.26361">
        <ele>302</ele>
        <time>2020-06-15T14:47:01Z</time>
      </trkpt>
      <trkpt lat="44.53948" lon="2.26282">
        <ele>300</ele>
        <time>2020-06-15T14:47:11Z</time>
      </trkpt>
      <trkpt lat="44.53938" lon="2.26254">
        <ele>297</ele>
        <time>2020-06-15T14:47:15Z</time>
      </trkpt>
      <trkpt lat="44.53938" lon="2.2624">
        <ele>297</ele>
        <time>2020-06-15T14:47:17Z</time>
      </trkpt>
      <trkpt lat="44.53934" lon="2.26232">
        <ele>297</ele>
        <time>2020-06-15T14:47:18Z</time>
      </trkpt>
      <trkpt lat="44.53929" lon="2.26209">
        <ele>299</ele>
        <time>2020-06-15T14:47:22Z</time>
      </trkpt>
      <trkpt lat="44.53929" lon="2.26129">
        <ele>300</ele>
        <time>2020-06-15T14:47:34Z</time>
      </trkpt>
      <trkpt lat="44.5393" lon="2.2612">
        <ele>299</ele>
        <time>2020-06-15T14:47:36Z</time>
      </trkpt>
      <trkpt lat="44.53939" lon="2.26077">
        <ele>297</ele>
        <time>2020-06-15T14:47:44Z</time>
      </trkpt>
      <trkpt lat="44.53939" lon="2.26061">
        <ele>297</ele>
        <time>2020-06-15T14:47:46Z</time>
      </trkpt>
      <trkpt lat="44.53939" lon="2.26009">
        <ele>298</ele>
        <time>2020-06-15T14:47:54Z</time>
      </trkpt>
      <trkpt lat="44.53936" lon="2.26001">
        <ele>298</ele>
        <time>2020-06-15T14:47:56Z</time>
      </trkpt>
      <trkpt lat="44.53929" lon="2.25999">
        <ele>299</ele>
        <time>2020-06-15T14:47:58Z</time>
      </trkpt>
      <trkpt lat="44.53916" lon="2.25995">
        <ele>300</ele>
        <time>2020-06-15T14:48:02Z</time>
      </trkpt>
      <trkpt lat="44.53912" lon="2.25991">
        <ele>300</ele>
        <time>2020-06-15T14:48:04Z</time>
      </trkpt>
      <trkpt lat="44.53909" lon="2.25971">
        <ele>299</ele>
        <time>2020-06-15T14:48:08Z</time>
      </trkpt>
      <trkpt lat="44.53912" lon="2.25934">
        <ele>302</ele>
        <time>2020-06-15T14:48:16Z</time>
      </trkpt>
      <trkpt lat="44.5391" lon="2.25927">
        <ele>302</ele>
        <time>2020-06-15T14:48:18Z</time>
      </trkpt>
      <trkpt lat="44.53881" lon="2.25915">
        <ele>305</ele>
        <time>2020-06-15T14:48:26Z</time>
      </trkpt>
      <trkpt lat="44.53873" lon="2.25916">
        <ele>306</ele>
        <time>2020-06-15T14:48:28Z</time>
      </trkpt>
      <trkpt lat="44.53859" lon="2.25928">
        <ele>305</ele>
        <time>2020-06-15T14:48:32Z</time>
      </trkpt>
      <trkpt lat="44.5384" lon="2.25966">
        <ele>303</ele>
        <time>2020-06-15T14:48:41Z</time>
      </trkpt>
      <trkpt lat="44.53812" lon="2.26021">
        <ele>303</ele>
        <time>2020-06-15T14:48:56Z</time>
      </trkpt>
      <trkpt lat="44.53777" lon="2.26046">
        <ele>305</ele>
        <time>2020-06-15T14:49:07Z</time>
      </trkpt>
      <trkpt lat="44.53758" lon="2.26054">
        <ele>306</ele>
        <time>2020-06-15T14:49:13Z</time>
      </trkpt>
      <trkpt lat="44.53739" lon="2.26064">
        <ele>309</ele>
        <time>2020-06-15T14:49:19Z</time>
      </trkpt>
      <trkpt lat="44.53733" lon="2.26067">
        <ele>312</ele>
        <time>2020-06-15T14:49:22Z</time>
      </trkpt>
      <trkpt lat="44.53727" lon="2.26072">
        <ele>314</ele>
        <time>2020-06-15T14:49:25Z</time>
      </trkpt>
      <trkpt lat="44.53722" lon="2.26076">
        <ele>316</ele>
        <time>2020-06-15T14:49:27Z</time>
      </trkpt>
      <trkpt lat="44.53717" lon="2.26078">
        <ele>318</ele>
        <time>2020-06-15T14:49:30Z</time>
      </trkpt>
      <trkpt lat="44.53669" lon="2.26102">
        <ele>329</ele>
        <time>2020-06-15T14:49:52Z</time>
      </trkpt>
      <trkpt lat="44.53641" lon="2.26109">
        <ele>329</ele>
        <time>2020-06-15T14:50:05Z</time>
      </trkpt>
      <trkpt lat="44.53635" lon="2.26114">
        <ele>331</ele>
        <time>2020-06-15T14:50:09Z</time>
      </trkpt>
      <trkpt lat="44.53629" lon="2.26116">
        <ele>331</ele>
        <time>2020-06-15T14:50:12Z</time>
      </trkpt>
      <trkpt lat="44.53622" lon="2.26117">
        <ele>332</ele>
        <time>2020-06-15T14:50:15Z</time>
      </trkpt>
      <trkpt lat="44.53561" lon="2.26141">
        <ele>336</ele>
        <time>2020-06-15T14:50:41Z</time>
      </trkpt>
      <trkpt lat="44.53549" lon="2.26149">
        <ele>342</ele>
        <time>2020-06-15T14:50:46Z</time>
      </trkpt>
      <trkpt lat="44.53543" lon="2.26153">
        <ele>339</ele>
        <time>2020-06-15T14:50:49Z</time>
      </trkpt>
      <trkpt lat="44.53538" lon="2.26162">
        <ele>338</ele>
        <time>2020-06-15T14:50:52Z</time>
      </trkpt>
      <trkpt lat="44.53523" lon="2.26211">
        <ele>335</ele>
        <time>2020-06-15T14:51:09Z</time>
      </trkpt>
      <trkpt lat="44.53522" lon="2.26224">
        <ele>335</ele>
        <time>2020-06-15T14:51:13Z</time>
      </trkpt>
      <trkpt lat="44.53522" lon="2.26236">
        <ele>338</ele>
        <time>2020-06-15T14:51:17Z</time>
      </trkpt>
      <trkpt lat="44.53523" lon="2.26247">
        <ele>340</ele>
        <time>2020-06-15T14:51:20Z</time>
      </trkpt>
      <trkpt lat="44.5353" lon="2.2627">
        <ele>344</ele>
        <time>2020-06-15T14:51:27Z</time>
      </trkpt>
      <trkpt lat="44.53546" lon="2.26305">
        <ele>346</ele>
        <time>2020-06-15T14:51:40Z</time>
      </trkpt>
      <trkpt lat="44.53564" lon="2.26358">
        <ele>347</ele>
        <time>2020-06-15T14:51:58Z</time>
      </trkpt>
      <trkpt lat="44.53569" lon="2.26366">
        <ele>348</ele>
        <time>2020-06-15T14:52:01Z</time>
      </trkpt>
      <trkpt lat="44.53583" lon="2.26392">
        <ele>354</ele>
        <time>2020-06-15T14:52:11Z</time>
      </trkpt>
      <trkpt lat="44.53585" lon="2.26398">
        <ele>354</ele>
        <time>2020-06-15T14:52:13Z</time>
      </trkpt>
      <trkpt lat="44.53587" lon="2.26406">
        <ele>355</ele>
        <time>2020-06-15T14:52:16Z</time>
      </trkpt>
      <trkpt lat="44.53586" lon="2.26414">
        <ele>356</ele>
        <time>2020-06-15T14:52:19Z</time>
      </trkpt>
      <trkpt lat="44.53584" lon="2.2642">
        <ele>357</ele>
        <time>2020-06-15T14:52:21Z</time>
      </trkpt>
      <trkpt lat="44.5357" lon="2.26429">
        <ele>360</ele>
        <time>2020-06-15T14:52:28Z</time>
      </trkpt>
      <trkpt lat="44.53505" lon="2.26446">
        <ele>365</ele>
        <time>2020-06-15T14:52:59Z</time>
      </trkpt>
      <trkpt lat="44.53466" lon="2.26461">
        <ele>370</ele>
        <time>2020-06-15T14:53:18Z</time>
      </trkpt>
      <trkpt lat="44.5346" lon="2.26461">
        <ele>370</ele>
        <time>2020-06-15T14:53:20Z</time>
      </trkpt>
      <trkpt lat="44.53456" lon="2.26461">
        <ele>373</ele>
        <time>2020-06-15T14:53:22Z</time>
      </trkpt>
      <trkpt lat="44.53439" lon="2.26465">
        <ele>373</ele>
        <time>2020-06-15T14:53:31Z</time>
      </trkpt>
      <trkpt lat="44.53435" lon="2.26465">
        <ele>374</ele>
        <time>2020-06-15T14:53:33Z</time>
      </trkpt>
      <trkpt lat="44.5342" lon="2.26466">
        <ele>377</ele>
        <time>2020-06-15T14:53:40Z</time>
      </trkpt>
      <trkpt lat="44.53422" lon="2.26461">
        <ele>378</ele>
        <time>2020-06-15T14:53:44Z</time>
      </trkpt>
      <trkpt lat="44.53433" lon="2.26456">
        <ele>379</ele>
        <time>2020-06-15T14:53:49Z</time>
      </trkpt>
      <trkpt lat="44.53451" lon="2.26458">
        <ele>379</ele>
        <time>2020-06-15T14:53:55Z</time>
      </trkpt>
      <trkpt lat="44.53458" lon="2.26457">
        <ele>379</ele>
        <time>2020-06-15T14:53:57Z</time>
      </trkpt>
      <trkpt lat="44.53476" lon="2.26444">
        <ele>379</ele>
        <time>2020-06-15T14:54:02Z</time>
      </trkpt>
      <trkpt lat="44.53488" lon="2.26429">
        <ele>379</ele>
        <time>2020-06-15T14:54:06Z</time>
      </trkpt>
      <trkpt lat="44.53498" lon="2.26407">
        <ele>381</ele>
        <time>2020-06-15T14:54:11Z</time>
      </trkpt>
      <trkpt lat="44.53501" lon="2.26385">
        <ele>381</ele>
        <time>2020-06-15T14:54:15Z</time>
      </trkpt>
      <trkpt lat="44.53502" lon="2.26379">
        <ele>381</ele>
        <time>2020-06-15T14:54:16Z</time>
      </trkpt>
      <trkpt lat="44.535" lon="2.2636">
        <ele>380</ele>
        <time>2020-06-15T14:54:19Z</time>
      </trkpt>
      <trkpt lat="44.53489" lon="2.26322">
        <ele>380</ele>
        <time>2020-06-15T14:54:26Z</time>
      </trkpt>
      <trkpt lat="44.53475" lon="2.26291">
        <ele>379</ele>
        <time>2020-06-15T14:54:31Z</time>
      </trkpt>
      <trkpt lat="44.53467" lon="2.26265">
        <ele>377</ele>
        <time>2020-06-15T14:54:35Z</time>
      </trkpt>
      <trkpt lat="44.53466" lon="2.26253">
        <ele>376</ele>
        <time>2020-06-15T14:54:37Z</time>
      </trkpt>
      <trkpt lat="44.53469" lon="2.2624">
        <ele>377</ele>
        <time>2020-06-15T14:54:39Z</time>
      </trkpt>
      <trkpt lat="44.53486" lon="2.26047">
        <ele>376</ele>
        <time>2020-06-15T14:55:09Z</time>
      </trkpt>
      <trkpt lat="44.53487" lon="2.26024">
        <ele>377</ele>
        <time>2020-06-15T14:55:13Z</time>
      </trkpt>
      <trkpt lat="44.53488" lon="2.25992">
        <ele>378</ele>
        <time>2020-06-15T14:55:18Z</time>
      </trkpt>
      <trkpt lat="44.53496" lon="2.25958">
        <ele>380</ele>
        <time>2020-06-15T14:55:23Z</time>
      </trkpt>
      <trkpt lat="44.53501" lon="2.25945">
        <ele>380</ele>
        <time>2020-06-15T14:55:25Z</time>
      </trkpt>
      <trkpt lat="44.53505" lon="2.25938">
        <ele>379</ele>
        <time>2020-06-15T14:55:26Z</time>
      </trkpt>
      <trkpt lat="44.53531" lon="2.25913">
        <ele>375</ele>
        <time>2020-06-15T14:55:31Z</time>
      </trkpt>
      <trkpt lat="44.53576" lon="2.25836">
        <ele>377</ele>
        <time>2020-06-15T14:55:45Z</time>
      </trkpt>
      <trkpt lat="44.53581" lon="2.25823">
        <ele>376</ele>
        <time>2020-06-15T14:55:48Z</time>
      </trkpt>
      <trkpt lat="44.53595" lon="2.25813">
        <ele>374</ele>
        <time>2020-06-15T14:55:53Z</time>
      </trkpt>
      <trkpt lat="44.536" lon="2.25801">
        <ele>375</ele>
        <time>2020-06-15T14:55:55Z</time>
      </trkpt>
      <trkpt lat="44.53597" lon="2.25758">
        <ele>374</ele>
        <time>2020-06-15T14:56:01Z</time>
      </trkpt>
      <trkpt lat="44.53596" lon="2.25748">
        <ele>373</ele>
        <time>2020-06-15T14:56:03Z</time>
      </trkpt>
      <trkpt lat="44.53594" lon="2.25738">
        <ele>373</ele>
        <time>2020-06-15T14:56:05Z</time>
      </trkpt>
      <trkpt lat="44.53592" lon="2.2573">
        <ele>373</ele>
        <time>2020-06-15T14:56:07Z</time>
      </trkpt>
      <trkpt lat="44.53526" lon="2.25634">
        <ele>381</ele>
        <time>2020-06-15T14:56:38Z</time>
      </trkpt>
      <trkpt lat="44.53513" lon="2.25613">
        <ele>379</ele>
        <time>2020-06-15T14:56:44Z</time>
      </trkpt>
      <trkpt lat="44.53504" lon="2.25597">
        <ele>379</ele>
        <time>2020-06-15T14:56:49Z</time>
      </trkpt>
      <trkpt lat="44.53485" lon="2.25581">
        <ele>378</ele>
        <time>2020-06-15T14:56:56Z</time>
      </trkpt>
      <trkpt lat="44.53471" lon="2.25578">
        <ele>377</ele>
        <time>2020-06-15T14:57:00Z</time>
      </trkpt>
      <trkpt lat="44.53433" lon="2.25581">
        <ele>379</ele>
        <time>2020-06-15T14:57:09Z</time>
      </trkpt>
      <trkpt lat="44.53426" lon="2.25582">
        <ele>379</ele>
        <time>2020-06-15T14:57:11Z</time>
      </trkpt>
      <trkpt lat="44.53414" lon="2.25592">
        <ele>381</ele>
        <time>2020-06-15T14:57:15Z</time>
      </trkpt>
      <trkpt lat="44.53408" lon="2.25595">
        <ele>383</ele>
        <time>2020-06-15T14:57:17Z</time>
      </trkpt>
      <trkpt lat="44.53392" lon="2.256">
        <ele>388</ele>
        <time>2020-06-15T14:57:21Z</time>
      </trkpt>
      <trkpt lat="44.53388" lon="2.25605">
        <ele>388</ele>
        <time>2020-06-15T14:57:22Z</time>
      </trkpt>
      <trkpt lat="44.53356" lon="2.25635">
        <ele>389</ele>
        <time>2020-06-15T14:57:28Z</time>
      </trkpt>
      <trkpt lat="44.53281" lon="2.2569">
        <ele>387</ele>
        <time>2020-06-15T14:57:39Z</time>
      </trkpt>
      <trkpt lat="44.53267" lon="2.25707">
        <ele>382</ele>
        <time>2020-06-15T14:57:41Z</time>
      </trkpt>
      <trkpt lat="44.53247" lon="2.25731">
        <ele>378</ele>
        <time>2020-06-15T14:57:44Z</time>
      </trkpt>
      <trkpt lat="44.5324" lon="2.25736">
        <ele>378</ele>
        <time>2020-06-15T14:57:45Z</time>
      </trkpt>
      <trkpt lat="44.53226" lon="2.25739">
        <ele>378</ele>
        <time>2020-06-15T14:57:47Z</time>
      </trkpt>
      <trkpt lat="44.53142" lon="2.25841">
        <ele>370</ele>
        <time>2020-06-15T14:58:08Z</time>
      </trkpt>
      <trkpt lat="44.53139" lon="2.25847">
        <ele>371</ele>
        <time>2020-06-15T14:58:10Z</time>
      </trkpt>
      <trkpt lat="44.53136" lon="2.25856">
        <ele>373</ele>
        <time>2020-06-15T14:58:12Z</time>
      </trkpt>
      <trkpt lat="44.5313" lon="2.25923">
        <ele>373</ele>
        <time>2020-06-15T14:58:29Z</time>
      </trkpt>
      <trkpt lat="44.53127" lon="2.2594">
        <ele>374</ele>
        <time>2020-06-15T14:58:34Z</time>
      </trkpt>
      <trkpt lat="44.53117" lon="2.25965">
        <ele>375</ele>
        <time>2020-06-15T14:58:41Z</time>
      </trkpt>
      <trkpt lat="44.53116" lon="2.25973">
        <ele>376</ele>
        <time>2020-06-15T14:58:43Z</time>
      </trkpt>
      <trkpt lat="44.53116" lon="2.2598">
        <ele>377</ele>
        <time>2020-06-15T14:58:45Z</time>
      </trkpt>
      <trkpt lat="44.53121" lon="2.25995">
        <ele>380</ele>
        <time>2020-06-15T14:58:50Z</time>
      </trkpt>
      <trkpt lat="44.53135" lon="2.26028">
        <ele>384</ele>
        <time>2020-06-15T14:59:01Z</time>
      </trkpt>
      <trkpt lat="44.53147" lon="2.26072">
        <ele>389</ele>
        <time>2020-06-15T14:59:15Z</time>
      </trkpt>
      <trkpt lat="44.53133" lon="2.2614">
        <ele>394</ele>
        <time>2020-06-15T14:59:30Z</time>
      </trkpt>
      <trkpt lat="44.53108" lon="2.26215">
        <ele>387</ele>
        <time>2020-06-15T14:59:43Z</time>
      </trkpt>
      <trkpt lat="44.53102" lon="2.26226">
        <ele>388</ele>
        <time>2020-06-15T14:59:45Z</time>
      </trkpt>
      <trkpt lat="44.53089" lon="2.26241">
        <ele>390</ele>
        <time>2020-06-15T14:59:48Z</time>
      </trkpt>
      <trkpt lat="44.53085" lon="2.26251">
        <ele>390</ele>
        <time>2020-06-15T14:59:50Z</time>
      </trkpt>
      <trkpt lat="44.53085" lon="2.26264">
        <ele>390</ele>
        <time>2020-06-15T14:59:52Z</time>
      </trkpt>
      <trkpt lat="44.53099" lon="2.26299">
        <ele>388</ele>
        <time>2020-06-15T14:59:59Z</time>
      </trkpt>
      <trkpt lat="44.53108" lon="2.26334">
        <ele>389</ele>
        <time>2020-06-15T15:00:05Z</time>
      </trkpt>
      <trkpt lat="44.53114" lon="2.26377">
        <ele>387</ele>
        <time>2020-06-15T15:00:11Z</time>
      </trkpt>
      <trkpt lat="44.53112" lon="2.26403">
        <ele>386</ele>
        <time>2020-06-15T15:00:14Z</time>
      </trkpt>
      <trkpt lat="44.5311" lon="2.26411">
        <ele>387</ele>
        <time>2020-06-15T15:00:15Z</time>
      </trkpt>
      <trkpt lat="44.5311" lon="2.26417">
        <ele>387</ele>
        <time>2020-06-15T15:00:16Z</time>
      </trkpt>
      <trkpt lat="44.53102" lon="2.26468">
        <ele>386</ele>
        <time>2020-06-15T15:00:22Z</time>
      </trkpt>
      <trkpt lat="44.53103" lon="2.26487">
        <ele>385</ele>
        <time>2020-06-15T15:00:24Z</time>
      </trkpt>
      <trkpt lat="44.53124" lon="2.26502">
        <ele>383</ele>
        <time>2020-06-15T15:00:27Z</time>
      </trkpt>
      <trkpt lat="44.5317" lon="2.26538">
        <ele>377</ele>
        <time>2020-06-15T15:00:34Z</time>
      </trkpt>
      <trkpt lat="44.53175" lon="2.26541">
        <ele>377</ele>
        <time>2020-06-15T15:00:35Z</time>
      </trkpt>
      <trkpt lat="44.53224" lon="2.26547">
        <ele>380</ele>
        <time>2020-06-15T15:00:44Z</time>
      </trkpt>
      <trkpt lat="44.53229" lon="2.26545">
        <ele>380</ele>
        <time>2020-06-15T15:00:45Z</time>
      </trkpt>
      <trkpt lat="44.53234" lon="2.26546">
        <ele>381</ele>
        <time>2020-06-15T15:00:46Z</time>
      </trkpt>
      <trkpt lat="44.53239" lon="2.26544">
        <ele>381</ele>
        <time>2020-06-15T15:00:47Z</time>
      </trkpt>
      <trkpt lat="44.53319" lon="2.26551">
        <ele>388</ele>
        <time>2020-06-15T15:01:08Z</time>
      </trkpt>
      <trkpt lat="44.5333" lon="2.26558">
        <ele>389</ele>
        <time>2020-06-15T15:01:12Z</time>
      </trkpt>
      <trkpt lat="44.53339" lon="2.26572">
        <ele>390</ele>
        <time>2020-06-15T15:01:16Z</time>
      </trkpt>
      <trkpt lat="44.5337" lon="2.26666">
        <ele>383</ele>
        <time>2020-06-15T15:01:27Z</time>
      </trkpt>
      <trkpt lat="44.53372" lon="2.26679">
        <ele>383</ele>
        <time>2020-06-15T15:01:28Z</time>
      </trkpt>
      <trkpt lat="44.53375" lon="2.26708">
        <ele>380</ele>
        <time>2020-06-15T15:01:30Z</time>
      </trkpt>
      <trkpt lat="44.53384" lon="2.26755">
        <ele>378</ele>
        <time>2020-06-15T15:01:34Z</time>
      </trkpt>
      <trkpt lat="44.53385" lon="2.26778">
        <ele>380</ele>
        <time>2020-06-15T15:01:37Z</time>
      </trkpt>
      <trkpt lat="44.53384" lon="2.26784">
        <ele>380</ele>
        <time>2020-06-15T15:01:38Z</time>
      </trkpt>
      <trkpt lat="44.53385" lon="2.26794">
        <ele>381</ele>
        <time>2020-06-15T15:01:40Z</time>
      </trkpt>
      <trkpt lat="44.53395" lon="2.2681">
        <ele>381</ele>
        <time>2020-06-15T15:01:44Z</time>
      </trkpt>
      <trkpt lat="44.53398" lon="2.26818">
        <ele>381</ele>
        <time>2020-06-15T15:01:46Z</time>
      </trkpt>
      <trkpt lat="44.53403" lon="2.26836">
        <ele>382</ele>
        <time>2020-06-15T15:01:50Z</time>
      </trkpt>
      <trkpt lat="44.53403" lon="2.26846">
        <ele>382</ele>
        <time>2020-06-15T15:01:52Z</time>
      </trkpt>
      <trkpt lat="44.53402" lon="2.26857">
        <ele>384</ele>
        <time>2020-06-15T15:01:54Z</time>
      </trkpt>
      <trkpt lat="44.53389" lon="2.2688">
        <ele>385</ele>
        <time>2020-06-15T15:01:59Z</time>
      </trkpt>
      <trkpt lat="44.53382" lon="2.26889">
        <ele>384</ele>
        <time>2020-06-15T15:02:01Z</time>
      </trkpt>
      <trkpt lat="44.53379" lon="2.26893">
        <ele>384</ele>
        <time>2020-06-15T15:02:02Z</time>
      </trkpt>
      <trkpt lat="44.53375" lon="2.26897">
        <ele>384</ele>
        <time>2020-06-15T15:02:03Z</time>
      </trkpt>
      <trkpt lat="44.53372" lon="2.269">
        <ele>384</ele>
        <time>2020-06-15T15:02:04Z</time>
      </trkpt>
      <trkpt lat="44.53324" lon="2.26957">
        <ele>384</ele>
        <time>2020-06-15T15:02:16Z</time>
      </trkpt>
      <trkpt lat="44.5332" lon="2.26959">
        <ele>384</ele>
        <time>2020-06-15T15:02:17Z</time>
      </trkpt>
      <trkpt lat="44.53316" lon="2.26961">
        <ele>384</ele>
        <time>2020-06-15T15:02:18Z</time>
      </trkpt>
      <trkpt lat="44.53312" lon="2.26965">
        <ele>384</ele>
        <time>2020-06-15T15:02:19Z</time>
      </trkpt>
      <trkpt lat="44.53297" lon="2.26986">
        <ele>386</ele>
        <time>2020-06-15T15:02:24Z</time>
      </trkpt>
      <trkpt lat="44.53295" lon="2.26992">
        <ele>387</ele>
        <time>2020-06-15T15:02:26Z</time>
      </trkpt>
      <trkpt lat="44.53294" lon="2.27001">
        <ele>388</ele>
        <time>2020-06-15T15:02:28Z</time>
      </trkpt>
      <trkpt lat="44.5329" lon="2.27006">
        <ele>387</ele>
        <time>2020-06-15T15:02:30Z</time>
      </trkpt>
      <trkpt lat="44.53279" lon="2.27027">
        <ele>388</ele>
        <time>2020-06-15T15:02:35Z</time>
      </trkpt>
      <trkpt lat="44.53242" lon="2.27086">
        <ele>390</ele>
        <time>2020-06-15T15:02:51Z</time>
      </trkpt>
      <trkpt lat="44.53235" lon="2.27091">
        <ele>389</ele>
        <time>2020-06-15T15:02:53Z</time>
      </trkpt>
      <trkpt lat="44.53227" lon="2.27101">
        <ele>391</ele>
        <time>2020-06-15T15:02:57Z</time>
      </trkpt>
      <trkpt lat="44.53219" lon="2.27106">
        <ele>391</ele>
        <time>2020-06-15T15:03:00Z</time>
      </trkpt>
      <trkpt lat="44.53173" lon="2.27146">
        <ele>390</ele>
        <time>2020-06-15T15:03:16Z</time>
      </trkpt>
      <trkpt lat="44.53153" lon="2.27162">
        <ele>392</ele>
        <time>2020-06-15T15:03:23Z</time>
      </trkpt>
      <trkpt lat="44.5314" lon="2.27175">
        <ele>393</ele>
        <time>2020-06-15T15:03:27Z</time>
      </trkpt>
      <trkpt lat="44.53133" lon="2.27181">
        <ele>397</ele>
        <time>2020-06-15T15:03:29Z</time>
      </trkpt>
      <trkpt lat="44.53116" lon="2.27191">
        <ele>400</ele>
        <time>2020-06-15T15:03:34Z</time>
      </trkpt>
      <trkpt lat="44.5311" lon="2.27196">
        <ele>400</ele>
        <time>2020-06-15T15:03:36Z</time>
      </trkpt>
      <trkpt lat="44.53105" lon="2.272">
        <ele>402</ele>
        <time>2020-06-15T15:03:38Z</time>
      </trkpt>
      <trkpt lat="44.531" lon="2.27197">
        <ele>402</ele>
        <time>2020-06-15T15:03:40Z</time>
      </trkpt>
      <trkpt lat="44.53097" lon="2.27193">
        <ele>401</ele>
        <time>2020-06-15T15:03:42Z</time>
      </trkpt>
      <trkpt lat="44.53096" lon="2.27184">
        <ele>401</ele>
        <time>2020-06-15T15:03:45Z</time>
      </trkpt>
      <trkpt lat="44.53094" lon="2.27172">
        <ele>397</ele>
        <time>2020-06-15T15:03:48Z</time>
      </trkpt>
      <trkpt lat="44.53086" lon="2.27153">
        <ele>393</ele>
        <time>2020-06-15T15:03:51Z</time>
      </trkpt>
      <trkpt lat="44.53081" lon="2.27152">
        <ele>393</ele>
        <time>2020-06-15T15:03:53Z</time>
      </trkpt>
      <trkpt lat="44.53077" lon="2.27149">
        <ele>394</ele>
        <time>2020-06-15T15:03:54Z</time>
      </trkpt>
      <trkpt lat="44.53071" lon="2.27151">
        <ele>395</ele>
        <time>2020-06-15T15:03:57Z</time>
      </trkpt>
      <trkpt lat="44.53067" lon="2.27157">
        <ele>394</ele>
        <time>2020-06-15T15:03:59Z</time>
      </trkpt>
      <trkpt lat="44.53056" lon="2.27165">
        <ele>393</ele>
        <time>2020-06-15T15:04:03Z</time>
      </trkpt>
      <trkpt lat="44.53046" lon="2.27164">
        <ele>393</ele>
        <time>2020-06-15T15:04:17Z</time>
      </trkpt>
      <trkpt lat="44.53044" lon="2.27157">
        <ele>389</ele>
        <time>2020-06-15T15:04:21Z</time>
      </trkpt>
      <trkpt lat="44.53046" lon="2.27152">
        <ele>386</ele>
        <time>2020-06-15T15:04:23Z</time>
      </trkpt>
      <trkpt lat="44.53049" lon="2.27144">
        <ele>385</ele>
        <time>2020-06-15T15:04:27Z</time>
      </trkpt>
      <trkpt lat="44.53047" lon="2.27137">
        <ele>385</ele>
        <time>2020-06-15T15:04:30Z</time>
      </trkpt>
      <trkpt lat="44.53043" lon="2.27134">
        <ele>386</ele>
        <time>2020-06-15T15:04:34Z</time>
      </trkpt>
      <trkpt lat="44.5304" lon="2.27128">
        <ele>386</ele>
        <time>2020-06-15T15:04:37Z</time>
      </trkpt>
      <trkpt lat="44.53035" lon="2.27126">
        <ele>387</ele>
        <time>2020-06-15T15:04:39Z</time>
      </trkpt>
      <trkpt lat="44.5303" lon="2.27127">
        <ele>387</ele>
        <time>2020-06-15T15:04:41Z</time>
      </trkpt>
      <trkpt lat="44.53023" lon="2.27141">
        <ele>385</ele>
        <time>2020-06-15T15:04:45Z</time>
      </trkpt>
      <trkpt lat="44.53019" lon="2.27145">
        <ele>385</ele>
        <time>2020-06-15T15:04:47Z</time>
      </trkpt>
      <trkpt lat="44.53014" lon="2.27143">
        <ele>384</ele>
        <time>2020-06-15T15:04:49Z</time>
      </trkpt>
      <trkpt lat="44.5301" lon="2.27139">
        <ele>383</ele>
        <time>2020-06-15T15:04:51Z</time>
      </trkpt>
      <trkpt lat="44.53005" lon="2.27136">
        <ele>381</ele>
        <time>2020-06-15T15:04:53Z</time>
      </trkpt>
      <trkpt lat="44.53001" lon="2.27144">
        <ele>380</ele>
        <time>2020-06-15T15:04:55Z</time>
      </trkpt>
      <trkpt lat="44.53001" lon="2.27154">
        <ele>379</ele>
        <time>2020-06-15T15:04:57Z</time>
      </trkpt>
      <trkpt lat="44.53003" lon="2.27169">
        <ele>379</ele>
        <time>2020-06-15T15:04:59Z</time>
      </trkpt>
      <trkpt lat="44.53003" lon="2.27197">
        <ele>379</ele>
        <time>2020-06-15T15:05:03Z</time>
      </trkpt>
      <trkpt lat="44.53001" lon="2.27222">
        <ele>379</ele>
        <time>2020-06-15T15:05:07Z</time>
      </trkpt>
      <trkpt lat="44.52997" lon="2.27234">
        <ele>379</ele>
        <time>2020-06-15T15:05:09Z</time>
      </trkpt>
      <trkpt lat="44.52967" lon="2.27267">
        <ele>380</ele>
        <time>2020-06-15T15:05:16Z</time>
      </trkpt>
      <trkpt lat="44.5296" lon="2.27269">
        <ele>380</ele>
        <time>2020-06-15T15:05:17Z</time>
      </trkpt>
      <trkpt lat="44.52957" lon="2.27273">
        <ele>381</ele>
        <time>2020-06-15T15:05:18Z</time>
      </trkpt>
      <trkpt lat="44.52943" lon="2.2728">
        <ele>381</ele>
        <time>2020-06-15T15:05:21Z</time>
      </trkpt>
      <trkpt lat="44.52929" lon="2.27284">
        <ele>381</ele>
        <time>2020-06-15T15:05:24Z</time>
      </trkpt>
      <trkpt lat="44.5291" lon="2.27293">
        <ele>382</ele>
        <time>2020-06-15T15:05:28Z</time>
      </trkpt>
      <trkpt lat="44.52878" lon="2.27326">
        <ele>381</ele>
        <time>2020-06-15T15:05:35Z</time>
      </trkpt>
      <trkpt lat="44.52874" lon="2.27337">
        <ele>382</ele>
        <time>2020-06-15T15:05:37Z</time>
      </trkpt>
      <trkpt lat="44.52863" lon="2.27358">
        <ele>382</ele>
        <time>2020-06-15T15:05:41Z</time>
      </trkpt>
      <trkpt lat="44.5286" lon="2.2737">
        <ele>381</ele>
        <time>2020-06-15T15:05:43Z</time>
      </trkpt>
      <trkpt lat="44.52826" lon="2.27442">
        <ele>379</ele>
        <time>2020-06-15T15:05:53Z</time>
      </trkpt>
      <trkpt lat="44.52825" lon="2.27451">
        <ele>379</ele>
        <time>2020-06-15T15:05:54Z</time>
      </trkpt>
      <trkpt lat="44.5282" lon="2.27455">
        <ele>378</ele>
        <time>2020-06-15T15:05:55Z</time>
      </trkpt>
      <trkpt lat="44.52819" lon="2.27463">
        <ele>376</ele>
        <time>2020-06-15T15:06:02Z</time>
      </trkpt>
      <trkpt lat="44.52814" lon="2.27481">
        <ele>374</ele>
        <time>2020-06-15T15:06:06Z</time>
      </trkpt>
      <trkpt lat="44.52812" lon="2.27501">
        <ele>372</ele>
        <time>2020-06-15T15:06:09Z</time>
      </trkpt>
      <trkpt lat="44.52801" lon="2.27528">
        <ele>370</ele>
        <time>2020-06-15T15:06:13Z</time>
      </trkpt>
      <trkpt lat="44.52801" lon="2.27535">
        <ele>370</ele>
        <time>2020-06-15T15:06:14Z</time>
      </trkpt>
      <trkpt lat="44.52805" lon="2.27548">
        <ele>371</ele>
        <time>2020-06-15T15:06:16Z</time>
      </trkpt>
      <trkpt lat="44.52812" lon="2.27558">
        <ele>371</ele>
        <time>2020-06-15T15:06:18Z</time>
      </trkpt>
      <trkpt lat="44.5292" lon="2.27619">
        <ele>375</ele>
        <time>2020-06-15T15:06:48Z</time>
      </trkpt>
      <trkpt lat="44.52992" lon="2.277">
        <ele>374</ele>
        <time>2020-06-15T15:07:11Z</time>
      </trkpt>
      <trkpt lat="44.52995" lon="2.27707">
        <ele>374</ele>
        <time>2020-06-15T15:07:13Z</time>
      </trkpt>
      <trkpt lat="44.53" lon="2.27713">
        <ele>374</ele>
        <time>2020-06-15T15:07:15Z</time>
      </trkpt>
      <trkpt lat="44.53002" lon="2.2772">
        <ele>374</ele>
        <time>2020-06-15T15:07:17Z</time>
      </trkpt>
      <trkpt lat="44.53005" lon="2.27741">
        <ele>378</ele>
        <time>2020-06-15T15:07:21Z</time>
      </trkpt>
      <trkpt lat="44.53002" lon="2.27757">
        <ele>380</ele>
        <time>2020-06-15T15:07:24Z</time>
      </trkpt>
      <trkpt lat="44.52995" lon="2.27756">
        <ele>380</ele>
        <time>2020-06-15T15:07:25Z</time>
      </trkpt>
      <trkpt lat="44.52989" lon="2.27759">
        <ele>380</ele>
        <time>2020-06-15T15:07:26Z</time>
      </trkpt>
      <trkpt lat="44.5298" lon="2.27771">
        <ele>382</ele>
        <time>2020-06-15T15:07:28Z</time>
      </trkpt>
      <trkpt lat="44.5297" lon="2.27793">
        <ele>383</ele>
        <time>2020-06-15T15:07:32Z</time>
      </trkpt>
      <trkpt lat="44.52967" lon="2.27802">
        <ele>383</ele>
        <time>2020-06-15T15:07:34Z</time>
      </trkpt>
      <trkpt lat="44.52957" lon="2.2782">
        <ele>387</ele>
        <time>2020-06-15T15:07:41Z</time>
      </trkpt>
      <trkpt lat="44.52956" lon="2.27827">
        <ele>388</ele>
        <time>2020-06-15T15:07:44Z</time>
      </trkpt>
      <trkpt lat="44.52949" lon="2.27839">
        <ele>387</ele>
        <time>2020-06-15T15:07:50Z</time>
      </trkpt>
      <trkpt lat="44.52949" lon="2.27861">
        <ele>387</ele>
        <time>2020-06-15T15:07:59Z</time>
      </trkpt>
      <trkpt lat="44.52953" lon="2.27892">
        <ele>392</ele>
        <time>2020-06-15T15:08:16Z</time>
      </trkpt>
      <trkpt lat="44.52957" lon="2.27907">
        <ele>394</ele>
        <time>2020-06-15T15:08:23Z</time>
      </trkpt>
      <trkpt lat="44.52957" lon="2.27931">
        <ele>395</ele>
        <time>2020-06-15T15:08:32Z</time>
      </trkpt>
      <trkpt lat="44.52955" lon="2.27967">
        <ele>396</ele>
        <time>2020-06-15T15:08:43Z</time>
      </trkpt>
      <trkpt lat="44.52955" lon="2.28023">
        <ele>395</ele>
        <time>2020-06-15T15:08:55Z</time>
      </trkpt>
      <trkpt lat="44.5296" lon="2.28052">
        <ele>394</ele>
        <time>2020-06-15T15:08:59Z</time>
      </trkpt>
      <trkpt lat="44.52957" lon="2.28075">
        <ele>395</ele>
        <time>2020-06-15T15:09:02Z</time>
      </trkpt>
      <trkpt lat="44.52953" lon="2.28092">
        <ele>395</ele>
        <time>2020-06-15T15:09:05Z</time>
      </trkpt>
      <trkpt lat="44.52943" lon="2.28118">
        <ele>399</ele>
        <time>2020-06-15T15:09:12Z</time>
      </trkpt>
      <trkpt lat="44.52941" lon="2.28126">
        <ele>400</ele>
        <time>2020-06-15T15:09:15Z</time>
      </trkpt>
      <trkpt lat="44.52942" lon="2.28138">
        <ele>403</ele>
        <time>2020-06-15T15:09:18Z</time>
      </trkpt>
      <trkpt lat="44.52941" lon="2.28146">
        <ele>410</ele>
        <time>2020-06-15T15:09:20Z</time>
      </trkpt>
      <trkpt lat="44.52944" lon="2.2819">
        <ele>414</ele>
        <time>2020-06-15T15:09:31Z</time>
      </trkpt>
      <trkpt lat="44.52949" lon="2.28205">
        <ele>413</ele>
        <time>2020-06-15T15:09:35Z</time>
      </trkpt>
      <trkpt lat="44.52951" lon="2.2822">
        <ele>412</ele>
        <time>2020-06-15T15:09:40Z</time>
      </trkpt>
      <trkpt lat="44.52942" lon="2.28252">
        <ele>413</ele>
        <time>2020-06-15T15:09:51Z</time>
      </trkpt>
      <trkpt lat="44.52926" lon="2.28288">
        <ele>409</ele>
        <time>2020-06-15T15:10:01Z</time>
      </trkpt>
      <trkpt lat="44.52921" lon="2.28319">
        <ele>404</ele>
        <time>2020-06-15T15:10:09Z</time>
      </trkpt>
      <trkpt lat="44.52925" lon="2.28349">
        <ele>404</ele>
        <time>2020-06-15T15:10:15Z</time>
      </trkpt>
      <trkpt lat="44.52928" lon="2.28374">
        <ele>405</ele>
        <time>2020-06-15T15:10:19Z</time>
      </trkpt>
      <trkpt lat="44.52929" lon="2.28392">
        <ele>406</ele>
        <time>2020-06-15T15:10:22Z</time>
      </trkpt>
      <trkpt lat="44.52928" lon="2.28423">
        <ele>410</ele>
        <time>2020-06-15T15:10:26Z</time>
      </trkpt>
      <trkpt lat="44.52924" lon="2.28438">
        <ele>412</ele>
        <time>2020-06-15T15:10:28Z</time>
      </trkpt>
      <trkpt lat="44.52924" lon="2.2845">
        <ele>413</ele>
        <time>2020-06-15T15:10:30Z</time>
      </trkpt>
      <trkpt lat="44.52927" lon="2.28463">
        <ele>413</ele>
        <time>2020-06-15T15:10:32Z</time>
      </trkpt>
      <trkpt lat="44.52929" lon="2.28477">
        <ele>416</ele>
        <time>2020-06-15T15:10:34Z</time>
      </trkpt>
      <trkpt lat="44.52934" lon="2.2849">
        <ele>417</ele>
        <time>2020-06-15T15:10:36Z</time>
      </trkpt>
      <trkpt lat="44.52936" lon="2.28504">
        <ele>417</ele>
        <time>2020-06-15T15:10:38Z</time>
      </trkpt>
      <trkpt lat="44.52932" lon="2.28515">
        <ele>418</ele>
        <time>2020-06-15T15:10:40Z</time>
      </trkpt>
      <trkpt lat="44.52916" lon="2.28531">
        <ele>420</ele>
        <time>2020-06-15T15:10:44Z</time>
      </trkpt>
      <trkpt lat="44.52911" lon="2.28531">
        <ele>419</ele>
        <time>2020-06-15T15:10:46Z</time>
      </trkpt>
      <trkpt lat="44.52901" lon="2.28533">
        <ele>417</ele>
        <time>2020-06-15T15:10:49Z</time>
      </trkpt>
      <trkpt lat="44.52894" lon="2.28534">
        <ele>416</ele>
        <time>2020-06-15T15:10:51Z</time>
      </trkpt>
      <trkpt lat="44.52876" lon="2.28545">
        <ele>416</ele>
        <time>2020-06-15T15:10:56Z</time>
      </trkpt>
      <trkpt lat="44.52855" lon="2.28596">
        <ele>418</ele>
        <time>2020-06-15T15:11:06Z</time>
      </trkpt>
      <trkpt lat="44.52851" lon="2.2862">
        <ele>417</ele>
        <time>2020-06-15T15:11:10Z</time>
      </trkpt>
      <trkpt lat="44.52856" lon="2.28632">
        <ele>416</ele>
        <time>2020-06-15T15:11:12Z</time>
      </trkpt>
      <trkpt lat="44.52876" lon="2.28637">
        <ele>415</ele>
        <time>2020-06-15T15:11:16Z</time>
      </trkpt>
      <trkpt lat="44.52885" lon="2.28639">
        <ele>415</ele>
        <time>2020-06-15T15:11:18Z</time>
      </trkpt>
      <trkpt lat="44.52896" lon="2.28648">
        <ele>415</ele>
        <time>2020-06-15T15:11:21Z</time>
      </trkpt>
      <trkpt lat="44.52903" lon="2.28657">
        <ele>416</ele>
        <time>2020-06-15T15:11:23Z</time>
      </trkpt>
      <trkpt lat="44.5291" lon="2.28674">
        <ele>417</ele>
        <time>2020-06-15T15:11:26Z</time>
      </trkpt>
      <trkpt lat="44.52913" lon="2.28684">
        <ele>418</ele>
        <time>2020-06-15T15:11:28Z</time>
      </trkpt>
      <trkpt lat="44.52916" lon="2.28692">
        <ele>418</ele>
        <time>2020-06-15T15:11:30Z</time>
      </trkpt>
      <trkpt lat="44.52918" lon="2.28703">
        <ele>417</ele>
        <time>2020-06-15T15:11:32Z</time>
      </trkpt>
      <trkpt lat="44.52918" lon="2.28713">
        <ele>417</ele>
        <time>2020-06-15T15:11:34Z</time>
      </trkpt>
      <trkpt lat="44.52913" lon="2.28718">
        <ele>417</ele>
        <time>2020-06-15T15:11:36Z</time>
      </trkpt>
      <trkpt lat="44.52838" lon="2.28732">
        <ele>421</ele>
        <time>2020-06-15T15:11:53Z</time>
      </trkpt>
      <trkpt lat="44.52803" lon="2.2873">
        <ele>419</ele>
        <time>2020-06-15T15:12:00Z</time>
      </trkpt>
      <trkpt lat="44.52789" lon="2.28733">
        <ele>419</ele>
        <time>2020-06-15T15:12:02Z</time>
      </trkpt>
      <trkpt lat="44.52772" lon="2.28746">
        <ele>419</ele>
        <time>2020-06-15T15:12:05Z</time>
      </trkpt>
      <trkpt lat="44.5269" lon="2.2884">
        <ele>413</ele>
        <time>2020-06-15T15:12:20Z</time>
      </trkpt>
      <trkpt lat="44.52685" lon="2.28846">
        <ele>413</ele>
        <time>2020-06-15T15:12:21Z</time>
      </trkpt>
      <trkpt lat="44.5268" lon="2.28875">
        <ele>413</ele>
        <time>2020-06-15T15:12:24Z</time>
      </trkpt>
      <trkpt lat="44.52684" lon="2.28917">
        <ele>412</ele>
        <time>2020-06-15T15:12:29Z</time>
      </trkpt>
      <trkpt lat="44.52691" lon="2.28942">
        <ele>408</ele>
        <time>2020-06-15T15:12:33Z</time>
      </trkpt>
      <trkpt lat="44.52701" lon="2.28974">
        <ele>404</ele>
        <time>2020-06-15T15:12:38Z</time>
      </trkpt>
      <trkpt lat="44.52701" lon="2.28981">
        <ele>405</ele>
        <time>2020-06-15T15:12:39Z</time>
      </trkpt>
      <trkpt lat="44.52698" lon="2.29037">
        <ele>403</ele>
        <time>2020-06-15T15:12:46Z</time>
      </trkpt>
      <trkpt lat="44.52692" lon="2.2907">
        <ele>404</ele>
        <time>2020-06-15T15:12:51Z</time>
      </trkpt>
      <trkpt lat="44.52687" lon="2.29108">
        <ele>406</ele>
        <time>2020-06-15T15:12:57Z</time>
      </trkpt>
      <trkpt lat="44.52685" lon="2.29126">
        <ele>408</ele>
        <time>2020-06-15T15:13:00Z</time>
      </trkpt>
      <trkpt lat="44.52683" lon="2.29195">
        <ele>405</ele>
        <time>2020-06-15T15:13:10Z</time>
      </trkpt>
      <trkpt lat="44.52684" lon="2.29205">
        <ele>405</ele>
        <time>2020-06-15T15:13:12Z</time>
      </trkpt>
      <trkpt lat="44.52684" lon="2.29216">
        <ele>402</ele>
        <time>2020-06-15T15:13:14Z</time>
      </trkpt>
      <trkpt lat="44.52673" lon="2.29314">
        <ele>403</ele>
        <time>2020-06-15T15:13:35Z</time>
      </trkpt>
      <trkpt lat="44.52674" lon="2.29322">
        <ele>404</ele>
        <time>2020-06-15T15:13:38Z</time>
      </trkpt>
    </trkseg>
  </trk>
</gpx>